PWSweather.com
Personal Weather Stations
Station Observations
WEERALK
AlkmaarNL 1827 PE

AlkmaarNL 1827 PE

Lat: 52.6712679, Lon: 4.7682444

Elevation: 7

Station Type: Davis Vantage Pro2

Latest ConditionsUpdated 10:43:00 AM GMT+01:01 Tuesday, Mar 31, 2015
Currently Today's Max Today's Min Today's Average
Temperature 47.7°F8.7°C 49.1°F9.5°C 42.8°F6.0°C 47.4°F8.6°C
Dew Point 40.5°F4.7°C 48.2°F9.0°C 40.3°F4.6°C 44.0°F6.7°C
Winds 16.0 mph W25.7 kmh W 24.0 mph WSW38.6 kmh WSW - 15.6 mph 25.1 kmh
Wind Gusts 40.0 mph64.4 kmh 43.0 mph69.2 kmh - -
Humidity 76% 97% 76% 88%
Pressure 29.38 in994.9 mb 29.41 in995.9 mb 29.12 in986.1 mb -
Precipitation - 0.43 in10.9 mm - -
Hour Temp Dew Point Humidity Winds Wind Gusts Pressure Precip Precip Rate Daily Precip Total
10:43 AM 47.7°F8.7°C 40.5°F4.7°C 76% 16.0 mph W25.7 kmh W 40.0 mph64.4 kmh 29.38 in994.9 mb 0.00 in0.0 mm 0.00 in0.0 mm 0.43 in10.9 mm
10:42 AM 47.7°F8.7°C 40.5°F4.7°C 76% 15.0 mph W24.1 kmh W 40.0 mph64.4 kmh 29.38 in994.9 mb 0.00 in0.0 mm 0.00 in0.0 mm 0.43 in10.9 mm
10:41 AM 47.7°F8.7°C 40.5°F4.7°C 76% 15.0 mph W24.1 kmh W 40.0 mph64.4 kmh 29.38 in994.9 mb 0.00 in0.0 mm 0.00 in0.0 mm 0.43 in10.9 mm
10:40 AM 47.5°F8.6°C 40.3°F4.6°C 76% 16.0 mph W25.7 kmh W 40.0 mph64.4 kmh 29.39 in995.3 mb 0.00 in0.0 mm 0.00 in0.0 mm 0.43 in10.9 mm
10:39 AM 47.5°F8.6°C 40.3°F4.6°C 76% 16.0 mph W25.7 kmh W 40.0 mph64.4 kmh 29.38 in994.9 mb 0.00 in0.0 mm 0.00 in0.0 mm 0.43 in10.9 mm
10:38 AM 47.5°F8.6°C 40.3°F4.6°C 76% 16.0 mph W25.7 kmh W 40.0 mph64.4 kmh 29.38 in994.9 mb 0.00 in0.0 mm 0.00 in0.0 mm 0.43 in10.9 mm
10:37 AM 47.5°F8.6°C 40.3°F4.6°C 76% 16.0 mph W25.7 kmh W 40.0 mph64.4 kmh 29.38 in994.9 mb 0.00 in0.0 mm 0.00 in0.0 mm 0.43 in10.9 mm
10:36 AM 47.5°F8.6°C 40.3°F4.6°C 76% 16.0 mph W25.7 kmh W 40.0 mph64.4 kmh 29.39 in995.3 mb 0.00 in0.0 mm 0.00 in0.0 mm 0.43 in10.9 mm
10:35 AM 47.5°F8.6°C 40.3°F4.6°C 76% 16.0 mph W25.7 kmh W 40.0 mph64.4 kmh 29.38 in994.9 mb 0.00 in0.0 mm 0.00 in0.0 mm 0.43 in10.9 mm
10:34 AM 47.5°F8.6°C 40.3°F4.6°C 76% 15.0 mph W24.1 kmh W 40.0 mph64.4 kmh 29.38 in994.9 mb 0.00 in0.0 mm 0.00 in0.0 mm 0.43 in10.9 mm
10:33 AM 47.5°F8.6°C 40.3°F4.6°C 76% 15.0 mph W24.1 kmh W 31.0 mph49.9 kmh 29.38 in994.9 mb 0.00 in0.0 mm 0.00 in0.0 mm 0.43 in10.9 mm
10:32 AM 47.5°F8.6°C 40.3°F4.6°C 76% 16.0 mph W25.7 kmh W 31.0 mph49.9 kmh 29.38 in994.9 mb 0.00 in0.0 mm 0.00 in0.0 mm 0.43 in10.9 mm
10:31 AM 47.5°F8.6°C 40.3°F4.6°C 76% 16.0 mph W25.7 kmh W 31.0 mph49.9 kmh 29.38 in994.9 mb 0.00 in0.0 mm 0.00 in0.0 mm 0.43 in10.9 mm
10:30 AM 47.5°F8.6°C 40.3°F4.6°C 76% 16.0 mph W25.7 kmh W 34.0 mph54.7 kmh 29.38 in994.9 mb 0.00 in0.0 mm 0.00 in0.0 mm 0.43 in10.9 mm
10:29 AM 47.5°F8.6°C 40.3°F4.6°C 76% 17.0 mph W27.4 kmh W 34.0 mph54.7 kmh 29.37 in994.6 mb 0.00 in0.0 mm 0.00 in0.0 mm 0.43 in10.9 mm
10:28 AM 47.5°F8.6°C 40.3°F4.6°C 76% 17.0 mph W27.4 kmh W 34.0 mph54.7 kmh 29.37 in994.6 mb 0.00 in0.0 mm 0.00 in0.0 mm 0.43 in10.9 mm
10:27 AM 47.5°F8.6°C 40.3°F4.6°C 76% 17.0 mph W27.4 kmh W 34.0 mph54.7 kmh 29.37 in994.6 mb 0.00 in0.0 mm 0.00 in0.0 mm 0.43 in10.9 mm
10:26 AM 47.5°F8.6°C 40.3°F4.6°C 76% 18.0 mph W29.0 kmh W 36.0 mph57.9 kmh 29.37 in994.6 mb 0.00 in0.0 mm 0.00 in0.0 mm 0.43 in10.9 mm
10:25 AM 47.5°F8.6°C 40.3°F4.6°C 76% 18.0 mph W29.0 kmh W 36.0 mph57.9 kmh 29.36 in994.2 mb 0.00 in0.0 mm 0.00 in0.0 mm 0.43 in10.9 mm
10:24 AM 47.5°F8.6°C 40.3°F4.6°C 76% 18.0 mph W29.0 kmh W 36.0 mph57.9 kmh 29.37 in994.6 mb 0.00 in0.0 mm 0.00 in0.0 mm 0.43 in10.9 mm
10:23 AM 47.5°F8.6°C 40.3°F4.6°C 76% 18.0 mph W29.0 kmh W 36.0 mph57.9 kmh 29.36 in994.2 mb 0.00 in0.0 mm 0.00 in0.0 mm 0.43 in10.9 mm
10:22 AM 47.5°F8.6°C 40.3°F4.6°C 76% 18.0 mph W29.0 kmh W 36.0 mph57.9 kmh 29.37 in994.6 mb 0.00 in0.0 mm 0.00 in0.0 mm 0.43 in10.9 mm
10:21 AM 47.5°F8.6°C 40.3°F4.6°C 76% 18.0 mph W29.0 kmh W 36.0 mph57.9 kmh 29.36 in994.2 mb 0.00 in0.0 mm 0.00 in0.0 mm 0.43 in10.9 mm
10:20 AM 47.5°F8.6°C 40.3°F4.6°C 76% 18.0 mph W29.0 kmh W 36.0 mph57.9 kmh 29.36 in994.2 mb 0.00 in0.0 mm 0.00 in0.0 mm 0.43 in10.9 mm
10:19 AM 47.7°F8.7°C 40.5°F4.7°C 76% 18.0 mph WSW29.0 kmh WSW 36.0 mph57.9 kmh 29.36 in994.2 mb 0.00 in0.0 mm 0.00 in0.0 mm 0.43 in10.9 mm
10:18 AM 47.7°F8.7°C 40.5°F4.7°C 76% 19.0 mph WSW30.6 kmh WSW 36.0 mph57.9 kmh 29.36 in994.2 mb 0.00 in0.0 mm 0.00 in0.0 mm 0.43 in10.9 mm
10:17 AM 47.7°F8.7°C 40.5°F4.7°C 76% 19.0 mph WSW30.6 kmh WSW 36.0 mph57.9 kmh 29.36 in994.2 mb 0.00 in0.0 mm 0.00 in0.0 mm 0.43 in10.9 mm
10:16 AM 47.7°F8.7°C 40.5°F4.7°C 76% 18.0 mph WSW29.0 kmh WSW 36.0 mph57.9 kmh 29.36 in994.2 mb 0.00 in0.0 mm 0.00 in0.0 mm 0.43 in10.9 mm
10:15 AM 47.7°F8.7°C 40.8°F4.9°C 77% 18.0 mph WSW29.0 kmh WSW 34.0 mph54.7 kmh 29.35 in993.9 mb 0.00 in0.0 mm 0.00 in0.0 mm 0.43 in10.9 mm
10:14 AM 47.7°F8.7°C 40.8°F4.9°C 77% 18.0 mph W29.0 kmh W 34.0 mph54.7 kmh 29.36 in994.2 mb 0.00 in0.0 mm 0.00 in0.0 mm 0.43 in10.9 mm
10:13 AM 47.7°F8.7°C 40.8°F4.9°C 77% 18.0 mph W29.0 kmh W 34.0 mph54.7 kmh 29.35 in993.9 mb 0.00 in0.0 mm 0.00 in0.0 mm 0.43 in10.9 mm
10:12 AM 47.7°F8.7°C 40.8°F4.9°C 77% 19.0 mph W30.6 kmh W 35.0 mph56.3 kmh 29.35 in993.9 mb 0.00 in0.0 mm 0.00 in0.0 mm 0.43 in10.9 mm
10:11 AM 47.7°F8.7°C 40.8°F4.9°C 77% 19.0 mph W30.6 kmh W 35.0 mph56.3 kmh 29.35 in993.9 mb 0.00 in0.0 mm 0.00 in0.0 mm 0.43 in10.9 mm
10:10 AM 47.7°F8.7°C 40.8°F4.9°C 77% 19.0 mph W30.6 kmh W 35.0 mph56.3 kmh 29.35 in993.9 mb 0.00 in0.0 mm 0.00 in0.0 mm 0.43 in10.9 mm
10:09 AM 47.7°F8.7°C 40.8°F4.9°C 77% 19.0 mph W30.6 kmh W 37.0 mph59.5 kmh 29.35 in993.9 mb 0.00 in0.0 mm 0.00 in0.0 mm 0.43 in10.9 mm
10:08 AM 47.7°F8.7°C 40.8°F4.9°C 77% 19.0 mph W30.6 kmh W 37.0 mph59.5 kmh 29.36 in994.2 mb 0.00 in0.0 mm 0.00 in0.0 mm 0.43 in10.9 mm
10:07 AM 47.7°F8.7°C 40.8°F4.9°C 77% 19.0 mph W30.6 kmh W 37.0 mph59.5 kmh 29.35 in993.9 mb 0.00 in0.0 mm 0.00 in0.0 mm 0.43 in10.9 mm
10:06 AM 47.7°F8.7°C 40.8°F4.9°C 77% 19.0 mph W30.6 kmh W 37.0 mph59.5 kmh 29.34 in993.6 mb 0.00 in0.0 mm 0.00 in0.0 mm 0.43 in10.9 mm
10:05 AM 47.7°F8.7°C 40.8°F4.9°C 77% 20.0 mph W32.2 kmh W 37.0 mph59.5 kmh 29.34 in993.6 mb 0.00 in0.0 mm 0.00 in0.0 mm 0.43 in10.9 mm
10:04 AM 47.7°F8.7°C 40.8°F4.9°C 77% 20.0 mph W32.2 kmh W 37.0 mph59.5 kmh 29.34 in993.6 mb 0.00 in0.0 mm 0.00 in0.0 mm 0.43 in10.9 mm
10:03 AM 47.7°F8.7°C 40.8°F4.9°C 77% 19.0 mph W30.6 kmh W 37.0 mph59.5 kmh 29.34 in993.6 mb 0.00 in0.0 mm 0.00 in0.0 mm 0.43 in10.9 mm
10:02 AM 47.7°F8.7°C 40.8°F4.9°C 77% 19.0 mph W30.6 kmh W 37.0 mph59.5 kmh 29.34 in993.6 mb 0.00 in0.0 mm 0.00 in0.0 mm 0.43 in10.9 mm
10:01 AM 47.8°F8.8°C 41.0°F5.0°C 77% 19.0 mph W30.6 kmh W 37.0 mph59.5 kmh 29.34 in993.6 mb 0.00 in0.0 mm 0.00 in0.0 mm 0.43 in10.9 mm
10:00 AM 47.8°F8.8°C 41.0°F5.0°C 77% 19.0 mph W30.6 kmh W 37.0 mph59.5 kmh 29.34 in993.6 mb 0.00 in0.0 mm 0.00 in0.0 mm 0.43 in10.9 mm
09:59 AM 47.8°F8.8°C 41.0°F5.0°C 77% 19.0 mph WSW30.6 kmh WSW 34.0 mph54.7 kmh 29.34 in993.6 mb 0.00 in0.0 mm 0.00 in0.0 mm 0.43 in10.9 mm
09:58 AM 47.8°F8.8°C 41.0°F5.0°C 77% 19.0 mph W30.6 kmh W 34.0 mph54.7 kmh 29.34 in993.6 mb 0.00 in0.0 mm 0.00 in0.0 mm 0.43 in10.9 mm
09:57 AM 47.8°F8.8°C 41.0°F5.0°C 77% 18.0 mph W29.0 kmh W 34.0 mph54.7 kmh 29.34 in993.6 mb 0.00 in0.0 mm 0.00 in0.0 mm 0.43 in10.9 mm
09:56 AM 47.8°F8.8°C 41.0°F5.0°C 77% 19.0 mph W30.6 kmh W 34.0 mph54.7 kmh 29.33 in993.2 mb 0.00 in0.0 mm 0.00 in0.0 mm 0.43 in10.9 mm
09:55 AM 48.0°F8.9°C 41.2°F5.1°C 77% 18.0 mph W29.0 kmh W 34.0 mph54.7 kmh 29.34 in993.6 mb 0.00 in0.0 mm 0.00 in0.0 mm 0.43 in10.9 mm
09:54 AM 48.0°F8.9°C 41.2°F5.1°C 77% 18.0 mph WSW29.0 kmh WSW 33.0 mph53.1 kmh 29.33 in993.2 mb 0.00 in0.0 mm 0.00 in0.0 mm 0.43 in10.9 mm
09:53 AM 48.0°F8.9°C 41.2°F5.1°C 77% 19.0 mph WSW30.6 kmh WSW 35.0 mph56.3 kmh 29.33 in993.2 mb 0.00 in0.0 mm 0.00 in0.0 mm 0.43 in10.9 mm
09:52 AM 48.0°F8.9°C 41.2°F5.1°C 77% 19.0 mph WSW30.6 kmh WSW 35.0 mph56.3 kmh 29.33 in993.2 mb 0.00 in0.0 mm 0.00 in0.0 mm 0.43 in10.9 mm
09:51 AM 48.0°F8.9°C 41.2°F5.1°C 77% 18.0 mph WSW29.0 kmh WSW 35.0 mph56.3 kmh 29.33 in993.2 mb 0.00 in0.0 mm 0.00 in0.0 mm 0.43 in10.9 mm
09:50 AM 48.0°F8.9°C 41.2°F5.1°C 77% 19.0 mph WSW30.6 kmh WSW 35.0 mph56.3 kmh 29.32 in992.9 mb 0.00 in0.0 mm 0.00 in0.0 mm 0.43 in10.9 mm
09:49 AM 48.0°F8.9°C 41.2°F5.1°C 77% 19.0 mph WSW30.6 kmh WSW 35.0 mph56.3 kmh 29.32 in992.9 mb 0.00 in0.0 mm 0.00 in0.0 mm 0.43 in10.9 mm
09:48 AM 48.0°F8.9°C 41.2°F5.1°C 77% 20.0 mph WSW32.2 kmh WSW 35.0 mph56.3 kmh 29.32 in992.9 mb 0.00 in0.0 mm 0.00 in0.0 mm 0.43 in10.9 mm
09:47 AM 48.0°F8.9°C 41.2°F5.1°C 77% 20.0 mph WSW32.2 kmh WSW 35.0 mph56.3 kmh 29.32 in992.9 mb 0.00 in0.0 mm 0.00 in0.0 mm 0.43 in10.9 mm
09:46 AM 48.0°F8.9°C 41.2°F5.1°C 77% 19.0 mph WSW30.6 kmh WSW 35.0 mph56.3 kmh 29.32 in992.9 mb 0.00 in0.0 mm 0.00 in0.0 mm 0.43 in10.9 mm
09:45 AM 48.0°F8.9°C 41.2°F5.1°C 77% 19.0 mph WSW30.6 kmh WSW 35.0 mph56.3 kmh 29.32 in992.9 mb 0.00 in0.0 mm 0.00 in0.0 mm 0.43 in10.9 mm
09:44 AM 48.0°F8.9°C 41.2°F5.1°C 77% 19.0 mph WSW30.6 kmh WSW 35.0 mph56.3 kmh 29.32 in992.9 mb 0.00 in0.0 mm 0.00 in0.0 mm 0.43 in10.9 mm
09:43 AM 48.0°F8.9°C 41.2°F5.1°C 77% 20.0 mph WSW32.2 kmh WSW 35.0 mph56.3 kmh 29.32 in992.9 mb 0.00 in0.0 mm 0.00 in0.0 mm 0.43 in10.9 mm
09:42 AM 48.0°F8.9°C 41.2°F5.1°C 77% 19.0 mph WSW30.6 kmh WSW 32.0 mph51.5 kmh 29.32 in992.9 mb 0.00 in0.0 mm 0.00 in0.0 mm 0.43 in10.9 mm
09:41 AM 47.8°F8.8°C 41.0°F5.0°C 77% 19.0 mph WSW30.6 kmh WSW 39.0 mph62.8 kmh 29.32 in992.9 mb 0.00 in0.0 mm 0.00 in0.0 mm 0.43 in10.9 mm
09:40 AM 48.0°F8.9°C 41.2°F5.1°C 77% 19.0 mph WSW30.6 kmh WSW 39.0 mph62.8 kmh 29.32 in992.9 mb 0.00 in0.0 mm 0.00 in0.0 mm 0.43 in10.9 mm
09:39 AM 48.0°F8.9°C 41.5°F5.3°C 78% 19.0 mph WSW30.6 kmh WSW 39.0 mph62.8 kmh 29.31 in992.6 mb 0.00 in0.0 mm 0.00 in0.0 mm 0.43 in10.9 mm
09:38 AM 48.0°F8.9°C 41.5°F5.3°C 78% 19.0 mph WSW30.6 kmh WSW 39.0 mph62.8 kmh 29.31 in992.6 mb 0.00 in0.0 mm 0.00 in0.0 mm 0.43 in10.9 mm
09:37 AM 48.0°F8.9°C 41.5°F5.3°C 78% 19.0 mph WSW30.6 kmh WSW 39.0 mph62.8 kmh 29.31 in992.6 mb 0.00 in0.0 mm 0.00 in0.0 mm 0.43 in10.9 mm
09:36 AM 48.0°F8.9°C 41.5°F5.3°C 78% 19.0 mph WSW30.6 kmh WSW 39.0 mph62.8 kmh 29.32 in992.9 mb 0.00 in0.0 mm 0.00 in0.0 mm 0.43 in10.9 mm
09:35 AM 48.0°F8.9°C 41.5°F5.3°C 78% 19.0 mph WSW30.6 kmh WSW 39.0 mph62.8 kmh 29.31 in992.6 mb 0.00 in0.0 mm 0.00 in0.0 mm 0.43 in10.9 mm
09:34 AM 48.0°F8.9°C 41.5°F5.3°C 78% 20.0 mph WSW32.2 kmh WSW 39.0 mph62.8 kmh 29.31 in992.6 mb 0.00 in0.0 mm 0.00 in0.0 mm 0.43 in10.9 mm
09:33 AM 48.0°F8.9°C 41.5°F5.3°C 78% 19.0 mph WSW30.6 kmh WSW 39.0 mph62.8 kmh 29.31 in992.6 mb 0.00 in0.0 mm 0.00 in0.0 mm 0.43 in10.9 mm
09:32 AM 48.0°F8.9°C 41.5°F5.3°C 78% 19.0 mph WSW30.6 kmh WSW 39.0 mph62.8 kmh 29.31 in992.6 mb 0.00 in0.0 mm 0.00 in0.0 mm 0.43 in10.9 mm
09:31 AM 48.0°F8.9°C 41.7°F5.4°C 79% 19.0 mph W30.6 kmh W 35.0 mph56.3 kmh 29.31 in992.6 mb 0.00 in0.0 mm 0.00 in0.0 mm 0.43 in10.9 mm
09:30 AM 48.0°F8.9°C 41.5°F5.3°C 78% 19.0 mph W30.6 kmh W 35.0 mph56.3 kmh 29.31 in992.6 mb 0.00 in0.0 mm 0.00 in0.0 mm 0.43 in10.9 mm
09:29 AM 47.8°F8.8°C 41.4°F5.2°C 78% 19.0 mph WSW30.6 kmh WSW 35.0 mph56.3 kmh 29.30 in992.2 mb 0.00 in0.0 mm 0.00 in0.0 mm 0.43 in10.9 mm
09:28 AM 47.8°F8.8°C 41.7°F5.4°C 79% 19.0 mph WSW30.6 kmh WSW 35.0 mph56.3 kmh 29.30 in992.2 mb 0.00 in0.0 mm 0.00 in0.0 mm 0.43 in10.9 mm
09:27 AM 47.8°F8.8°C 41.7°F5.4°C 79% 19.0 mph W30.6 kmh W 35.0 mph56.3 kmh 29.30 in992.2 mb 0.00 in0.0 mm 0.00 in0.0 mm 0.43 in10.9 mm
09:26 AM 47.8°F8.8°C 41.7°F5.4°C 79% 18.0 mph W29.0 kmh W 35.0 mph56.3 kmh 29.31 in992.6 mb 0.00 in0.0 mm 0.00 in0.0 mm 0.43 in10.9 mm
09:25 AM 47.8°F8.8°C 42.1°F5.6°C 80% 18.0 mph W29.0 kmh W 35.0 mph56.3 kmh 29.30 in992.2 mb 0.00 in0.0 mm 0.00 in0.0 mm 0.43 in10.9 mm
09:24 AM 47.8°F8.8°C 42.1°F5.6°C 80% 18.0 mph W29.0 kmh W 37.0 mph59.5 kmh 29.30 in992.2 mb 0.00 in0.0 mm 0.00 in0.0 mm 0.43 in10.9 mm
09:23 AM 47.8°F8.8°C 41.9°F5.5°C 80% 18.0 mph W29.0 kmh W 37.0 mph59.5 kmh 29.30 in992.2 mb 0.00 in0.0 mm 0.00 in0.0 mm 0.43 in10.9 mm
09:22 AM 47.8°F8.8°C 41.9°F5.5°C 80% 18.0 mph W29.0 kmh W 37.0 mph59.5 kmh 29.30 in992.2 mb 0.00 in0.0 mm 0.00 in0.0 mm 0.43 in10.9 mm
09:21 AM 47.8°F8.8°C 41.9°F5.5°C 80% 19.0 mph WSW30.6 kmh WSW 37.0 mph59.5 kmh 29.30 in992.2 mb 0.00 in0.0 mm 0.00 in0.0 mm 0.43 in10.9 mm
09:20 AM 47.7°F8.7°C 41.9°F5.5°C 80% 18.0 mph WSW29.0 kmh WSW 37.0 mph59.5 kmh 29.30 in992.2 mb 0.00 in0.0 mm 0.00 in0.0 mm 0.43 in10.9 mm
09:19 AM 47.7°F8.7°C 41.9°F5.5°C 80% 18.0 mph W29.0 kmh W 37.0 mph59.5 kmh 29.30 in992.2 mb 0.00 in0.0 mm 0.00 in0.0 mm 0.43 in10.9 mm
09:18 AM 47.7°F8.7°C 41.9°F5.5°C 80% 19.0 mph W30.6 kmh W 37.0 mph59.5 kmh 29.30 in992.2 mb 0.00 in0.0 mm 0.00 in0.0 mm 0.43 in10.9 mm
09:17 AM 47.7°F8.7°C 41.9°F5.5°C 80% 19.0 mph WSW30.6 kmh WSW 38.0 mph61.2 kmh 29.29 in991.9 mb 0.00 in0.0 mm 0.00 in0.0 mm 0.43 in10.9 mm
09:16 AM 47.7°F8.7°C 41.9°F5.5°C 80% 19.0 mph WSW30.6 kmh WSW 38.0 mph61.2 kmh 29.29 in991.9 mb 0.00 in0.0 mm 0.00 in0.0 mm 0.43 in10.9 mm
09:15 AM 47.7°F8.7°C 41.9°F5.5°C 80% 19.0 mph WSW30.6 kmh WSW 38.0 mph61.2 kmh 29.29 in991.9 mb 0.00 in0.0 mm 0.00 in0.0 mm 0.43 in10.9 mm
09:14 AM 47.8°F8.8°C 41.9°F5.5°C 80% 19.0 mph WSW30.6 kmh WSW 38.0 mph61.2 kmh 29.29 in991.9 mb 0.00 in0.0 mm 0.00 in0.0 mm 0.43 in10.9 mm
09:13 AM 47.8°F8.8°C 41.9°F5.5°C 80% 19.0 mph WSW30.6 kmh WSW 38.0 mph61.2 kmh 29.29 in991.9 mb 0.00 in0.0 mm 0.00 in0.0 mm 0.43 in10.9 mm
09:12 AM 47.8°F8.8°C 41.9°F5.5°C 80% 18.0 mph WSW29.0 kmh WSW 38.0 mph61.2 kmh 29.29 in991.9 mb 0.00 in0.0 mm 0.00 in0.0 mm 0.43 in10.9 mm
09:11 AM 47.8°F8.8°C 42.1°F5.6°C 80% 18.0 mph WSW29.0 kmh WSW 38.0 mph61.2 kmh 29.29 in991.9 mb 0.00 in0.0 mm 0.00 in0.0 mm 0.43 in10.9 mm
09:10 AM 47.8°F8.8°C 42.1°F5.6°C 80% 19.0 mph WSW30.6 kmh WSW 38.0 mph61.2 kmh 29.29 in991.9 mb 0.00 in0.0 mm 0.00 in0.0 mm 0.43 in10.9 mm
09:09 AM 47.8°F8.8°C 42.1°F5.6°C 80% 18.0 mph WSW29.0 kmh WSW 38.0 mph61.2 kmh 29.29 in991.9 mb 0.00 in0.0 mm 0.00 in0.0 mm 0.43 in10.9 mm
09:08 AM 47.8°F8.8°C 42.1°F5.6°C 80% 17.0 mph WSW27.4 kmh WSW 38.0 mph61.2 kmh 29.29 in991.9 mb 0.00 in0.0 mm 0.00 in0.0 mm 0.43 in10.9 mm
09:07 AM 47.8°F8.8°C 42.1°F5.6°C 80% 18.0 mph WSW29.0 kmh WSW 35.0 mph56.3 kmh 29.28 in991.5 mb 0.00 in0.0 mm 0.00 in0.0 mm 0.43 in10.9 mm
09:06 AM 47.8°F8.8°C 42.1°F5.6°C 80% 18.0 mph W29.0 kmh W 35.0 mph56.3 kmh 29.28 in991.5 mb 0.00 in0.0 mm 0.00 in0.0 mm 0.43 in10.9 mm
09:05 AM 47.8°F8.8°C 42.1°F5.6°C 80% 18.0 mph WSW29.0 kmh WSW 35.0 mph56.3 kmh 29.28 in991.5 mb 0.00 in0.0 mm 0.00 in0.0 mm 0.43 in10.9 mm
09:04 AM 47.8°F8.8°C 42.1°F5.6°C 80% 18.0 mph W29.0 kmh W 35.0 mph56.3 kmh 29.28 in991.5 mb 0.00 in0.0 mm 0.00 in0.0 mm 0.43 in10.9 mm
09:03 AM 47.8°F8.8°C 42.1°F5.6°C 80% 18.0 mph W29.0 kmh W 35.0 mph56.3 kmh 29.28 in991.5 mb 0.00 in0.0 mm 0.00 in0.0 mm 0.43 in10.9 mm
09:02 AM 47.8°F8.8°C 42.1°F5.6°C 80% 18.0 mph W29.0 kmh W 35.0 mph56.3 kmh 29.29 in991.9 mb 0.00 in0.0 mm 0.00 in0.0 mm 0.43 in10.9 mm
09:01 AM 47.8°F8.8°C 42.1°F5.6°C 80% 18.0 mph W29.0 kmh W 35.0 mph56.3 kmh 29.28 in991.5 mb 0.00 in0.0 mm 0.00 in0.0 mm 0.43 in10.9 mm
09:00 AM 47.8°F8.8°C 42.1°F5.6°C 80% 18.0 mph W29.0 kmh W 34.0 mph54.7 kmh 29.28 in991.5 mb 0.00 in0.0 mm 0.00 in0.0 mm 0.43 in10.9 mm
08:59 AM 47.8°F8.8°C 42.1°F5.6°C 80% 18.0 mph W29.0 kmh W 36.0 mph57.9 kmh 29.28 in991.5 mb 0.00 in0.0 mm 0.00 in0.0 mm 0.43 in10.9 mm
08:58 AM 47.8°F8.8°C 42.1°F5.6°C 80% 19.0 mph W30.6 kmh W 36.0 mph57.9 kmh 29.27 in991.2 mb 0.00 in0.0 mm 0.00 in0.0 mm 0.43 in10.9 mm
08:57 AM 47.8°F8.8°C 42.1°F5.6°C 80% 19.0 mph W30.6 kmh W 40.0 mph64.4 kmh 29.27 in991.2 mb 0.00 in0.0 mm 0.00 in0.0 mm 0.43 in10.9 mm
08:56 AM 47.8°F8.8°C 42.1°F5.6°C 80% 19.0 mph W30.6 kmh W 40.0 mph64.4 kmh 29.27 in991.2 mb 0.00 in0.0 mm 0.00 in0.0 mm 0.43 in10.9 mm
08:55 AM 47.8°F8.8°C 42.1°F5.6°C 80% 18.0 mph W29.0 kmh W 40.0 mph64.4 kmh 29.28 in991.5 mb 0.00 in0.0 mm 0.00 in0.0 mm 0.43 in10.9 mm
08:54 AM 48.0°F8.9°C 42.1°F5.6°C 80% 18.0 mph W29.0 kmh W 40.0 mph64.4 kmh 29.27 in991.2 mb 0.00 in0.0 mm 0.00 in0.0 mm 0.43 in10.9 mm
08:53 AM 48.0°F8.9°C 42.1°F5.6°C 80% 18.0 mph W29.0 kmh W 40.0 mph64.4 kmh 29.27 in991.2 mb 0.00 in0.0 mm 0.00 in0.0 mm 0.43 in10.9 mm
08:52 AM 48.0°F8.9°C 42.1°F5.6°C 80% 18.0 mph W29.0 kmh W 40.0 mph64.4 kmh 29.27 in991.2 mb 0.00 in0.0 mm 0.00 in0.0 mm 0.43 in10.9 mm
08:51 AM 48.0°F8.9°C 42.1°F5.6°C 80% 18.0 mph W29.0 kmh W 40.0 mph64.4 kmh 29.27 in991.2 mb 0.00 in0.0 mm 0.00 in0.0 mm 0.43 in10.9 mm
08:50 AM 48.0°F8.9°C 41.7°F5.4°C 79% 18.0 mph W29.0 kmh W 40.0 mph64.4 kmh 29.27 in991.2 mb 0.00 in0.0 mm 0.00 in0.0 mm 0.43 in10.9 mm
08:49 AM 48.0°F8.9°C 41.7°F5.4°C 79% 18.0 mph W29.0 kmh W 40.0 mph64.4 kmh 29.27 in991.2 mb 0.00 in0.0 mm 0.00 in0.0 mm 0.43 in10.9 mm
08:48 AM 48.0°F8.9°C 41.9°F5.5°C 79% 18.0 mph W29.0 kmh W 40.0 mph64.4 kmh 29.27 in991.2 mb 0.00 in0.0 mm 0.00 in0.0 mm 0.43 in10.9 mm
08:47 AM 48.0°F8.9°C 41.9°F5.5°C 79% 18.0 mph WSW29.0 kmh WSW 36.0 mph57.9 kmh 29.27 in991.2 mb 0.00 in0.0 mm 0.00 in0.0 mm 0.43 in10.9 mm
08:46 AM 48.0°F8.9°C 41.9°F5.5°C 79% 18.0 mph WSW29.0 kmh WSW 33.0 mph53.1 kmh 29.27 in991.2 mb 0.00 in0.0 mm 0.00 in0.0 mm 0.43 in10.9 mm
08:45 AM 48.2°F9.0°C 42.1°F5.6°C 79% 18.0 mph W29.0 kmh W 33.0 mph53.1 kmh 29.27 in991.2 mb 0.00 in0.0 mm 0.00 in0.0 mm 0.43 in10.9 mm
08:44 AM 48.0°F8.9°C 41.9°F5.5°C 79% 18.0 mph W29.0 kmh W 33.0 mph53.1 kmh 29.26 in990.9 mb 0.00 in0.0 mm 0.00 in0.0 mm 0.43 in10.9 mm
08:43 AM 48.2°F9.0°C 42.1°F5.6°C 79% 18.0 mph W29.0 kmh W 34.0 mph54.7 kmh 29.27 in991.2 mb 0.00 in0.0 mm 0.00 in0.0 mm 0.43 in10.9 mm
08:42 AM 48.2°F9.0°C 42.1°F5.6°C 79% 19.0 mph W30.6 kmh W 34.0 mph54.7 kmh 29.26 in990.9 mb 0.00 in0.0 mm 0.00 in0.0 mm 0.43 in10.9 mm
08:41 AM 48.4°F9.1°C 42.1°F5.6°C 79% 18.0 mph W29.0 kmh W 35.0 mph56.3 kmh 29.26 in990.9 mb 0.00 in0.0 mm 0.00 in0.0 mm 0.43 in10.9 mm
08:40 AM 48.4°F9.1°C 42.1°F5.6°C 79% 18.0 mph W29.0 kmh W 35.0 mph56.3 kmh 29.26 in990.9 mb 0.00 in0.0 mm 0.00 in0.0 mm 0.43 in10.9 mm
08:39 AM 48.4°F9.1°C 42.3°F5.7°C 79% 18.0 mph W29.0 kmh W 35.0 mph56.3 kmh 29.26 in990.9 mb 0.00 in0.0 mm 0.00 in0.0 mm 0.43 in10.9 mm
08:38 AM 48.6°F9.2°C 41.9°F5.5°C 78% 18.0 mph W29.0 kmh W 35.0 mph56.3 kmh 29.26 in990.9 mb 0.00 in0.0 mm 0.00 in0.0 mm 0.43 in10.9 mm
08:37 AM 48.6°F9.2°C 41.9°F5.5°C 78% 18.0 mph WSW29.0 kmh WSW 35.0 mph56.3 kmh 29.26 in990.9 mb 0.00 in0.0 mm 0.00 in0.0 mm 0.43 in10.9 mm
08:36 AM 48.6°F9.2°C 41.9°F5.5°C 78% 19.0 mph WSW30.6 kmh WSW 37.0 mph59.5 kmh 29.26 in990.9 mb 0.00 in0.0 mm 0.00 in0.0 mm 0.43 in10.9 mm
08:35 AM 48.6°F9.2°C 41.9°F5.5°C 78% 19.0 mph WSW30.6 kmh WSW 38.0 mph61.2 kmh 29.26 in990.9 mb 0.00 in0.0 mm 0.00 in0.0 mm 0.43 in10.9 mm
08:34 AM 48.6°F9.2°C 41.9°F5.5°C 78% 19.0 mph WSW30.6 kmh WSW 38.0 mph61.2 kmh 29.25 in990.5 mb 0.00 in0.0 mm 0.00 in0.0 mm 0.43 in10.9 mm
08:33 AM 48.6°F9.2°C 41.7°F5.4°C 77% 19.0 mph WSW30.6 kmh WSW 38.0 mph61.2 kmh 29.25 in990.5 mb 0.00 in0.0 mm 0.00 in0.0 mm 0.43 in10.9 mm
08:32 AM 48.6°F9.2°C 41.7°F5.4°C 77% 19.0 mph WSW30.6 kmh WSW 38.0 mph61.2 kmh 29.25 in990.5 mb 0.00 in0.0 mm 0.00 in0.0 mm 0.43 in10.9 mm
08:31 AM 48.7°F9.3°C 41.9°F5.5°C 77% 19.0 mph WSW30.6 kmh WSW 38.0 mph61.2 kmh 29.25 in990.5 mb 0.00 in0.0 mm 0.00 in0.0 mm 0.43 in10.9 mm
08:30 AM 48.7°F9.3°C 41.9°F5.5°C 77% 20.0 mph WSW32.2 kmh WSW 38.0 mph61.2 kmh 29.25 in990.5 mb 0.00 in0.0 mm 0.00 in0.0 mm 0.43 in10.9 mm
08:29 AM 48.7°F9.3°C 41.9°F5.5°C 77% 20.0 mph WSW32.2 kmh WSW 38.0 mph61.2 kmh 29.25 in990.5 mb 0.00 in0.0 mm 0.00 in0.0 mm 0.43 in10.9 mm
08:28 AM 48.7°F9.3°C 41.9°F5.5°C 77% 21.0 mph WSW33.8 kmh WSW 38.0 mph61.2 kmh 29.25 in990.5 mb 0.00 in0.0 mm 0.00 in0.0 mm 0.43 in10.9 mm
08:27 AM 48.7°F9.3°C 41.9°F5.5°C 77% 21.0 mph WSW33.8 kmh WSW 38.0 mph61.2 kmh 29.25 in990.5 mb 0.00 in0.0 mm 0.00 in0.0 mm 0.43 in10.9 mm
08:26 AM 48.7°F9.3°C 41.5°F5.3°C 76% 20.0 mph WSW32.2 kmh WSW 42.0 mph67.6 kmh 29.25 in990.5 mb 0.00 in0.0 mm 0.00 in0.0 mm 0.43 in10.9 mm
08:25 AM 48.7°F9.3°C 41.5°F5.3°C 76% 20.0 mph WSW32.2 kmh WSW 42.0 mph67.6 kmh 29.25 in990.5 mb 0.00 in0.0 mm 0.00 in0.0 mm 0.43 in10.9 mm
08:24 AM 48.7°F9.3°C 41.5°F5.3°C 76% 20.0 mph WSW32.2 kmh WSW 42.0 mph67.6 kmh 29.25 in990.5 mb 0.00 in0.0 mm 0.00 in0.0 mm 0.43 in10.9 mm
08:23 AM 48.7°F9.3°C 41.5°F5.3°C 76% 21.0 mph WSW33.8 kmh WSW 42.0 mph67.6 kmh 29.25 in990.5 mb 0.00 in0.0 mm 0.00 in0.0 mm 0.43 in10.9 mm
08:22 AM 48.7°F9.3°C 41.5°F5.3°C 76% 21.0 mph WSW33.8 kmh WSW 42.0 mph67.6 kmh 29.25 in990.5 mb 0.00 in0.0 mm 0.00 in0.0 mm 0.43 in10.9 mm
08:21 AM 48.7°F9.3°C 41.5°F5.3°C 76% 21.0 mph WSW33.8 kmh WSW 42.0 mph67.6 kmh 29.24 in990.2 mb 0.00 in0.0 mm 0.00 in0.0 mm 0.43 in10.9 mm
08:20 AM 48.7°F9.3°C 41.5°F5.3°C 76% 21.0 mph WSW33.8 kmh WSW 42.0 mph67.6 kmh 29.25 in990.5 mb 0.00 in0.0 mm 0.00 in0.0 mm 0.43 in10.9 mm
08:19 AM 48.7°F9.3°C 41.5°F5.3°C 76% 21.0 mph WSW33.8 kmh WSW 42.0 mph67.6 kmh 29.25 in990.5 mb 0.00 in0.0 mm 0.00 in0.0 mm 0.43 in10.9 mm
08:18 AM 48.7°F9.3°C 41.9°F5.5°C 77% 20.0 mph WSW32.2 kmh WSW 42.0 mph67.6 kmh 29.25 in990.5 mb 0.00 in0.0 mm 0.00 in0.0 mm 0.43 in10.9 mm
08:17 AM 48.7°F9.3°C 41.9°F5.5°C 77% 20.0 mph WSW32.2 kmh WSW 42.0 mph67.6 kmh 29.24 in990.2 mb 0.00 in0.0 mm 0.00 in0.0 mm 0.43 in10.9 mm
08:16 AM 48.7°F9.3°C 41.9°F5.5°C 77% 20.0 mph WSW32.2 kmh WSW 38.0 mph61.2 kmh 29.24 in990.2 mb 0.00 in0.0 mm 0.00 in0.0 mm 0.43 in10.9 mm
08:15 AM 48.7°F9.3°C 41.9°F5.5°C 77% 21.0 mph WSW33.8 kmh WSW 38.0 mph61.2 kmh 29.24 in990.2 mb 0.00 in0.0 mm 0.00 in0.0 mm 0.43 in10.9 mm
08:14 AM 48.7°F9.3°C 41.9°F5.5°C 77% 20.0 mph WSW32.2 kmh WSW 38.0 mph61.2 kmh 29.24 in990.2 mb 0.00 in0.0 mm 0.00 in0.0 mm 0.43 in10.9 mm
08:13 AM 48.7°F9.3°C 41.9°F5.5°C 77% 20.0 mph WSW32.2 kmh WSW 36.0 mph57.9 kmh 29.24 in990.2 mb 0.00 in0.0 mm 0.00 in0.0 mm 0.43 in10.9 mm
08:12 AM 48.7°F9.3°C 41.9°F5.5°C 77% 21.0 mph WSW33.8 kmh WSW 36.0 mph57.9 kmh 29.24 in990.2 mb 0.00 in0.0 mm 0.00 in0.0 mm 0.43 in10.9 mm
08:11 AM 48.7°F9.3°C 41.9°F5.5°C 77% 21.0 mph WSW33.8 kmh WSW 36.0 mph57.9 kmh 29.24 in990.2 mb 0.00 in0.0 mm 0.00 in0.0 mm 0.43 in10.9 mm
08:10 AM 48.7°F9.3°C 41.9°F5.5°C 77% 22.0 mph WSW35.4 kmh WSW 36.0 mph57.9 kmh 29.24 in990.2 mb 0.00 in0.0 mm 0.00 in0.0 mm 0.43 in10.9 mm
08:09 AM 48.7°F9.3°C 41.9°F5.5°C 77% 22.0 mph WSW35.4 kmh WSW 36.0 mph57.9 kmh 29.24 in990.2 mb 0.00 in0.0 mm 0.00 in0.0 mm 0.43 in10.9 mm
08:08 AM 48.7°F9.3°C 41.9°F5.5°C 77% 22.0 mph WSW35.4 kmh WSW 43.0 mph69.2 kmh 29.23 in989.8 mb 0.00 in0.0 mm 0.00 in0.0 mm 0.43 in10.9 mm
08:07 AM 48.7°F9.3°C 42.3°F5.7°C 78% 23.0 mph WSW37.0 kmh WSW 43.0 mph69.2 kmh 29.24 in990.2 mb 0.00 in0.0 mm 0.00 in0.0 mm 0.43 in10.9 mm
08:06 AM 48.7°F9.3°C 42.3°F5.7°C 78% 23.0 mph WSW37.0 kmh WSW 43.0 mph69.2 kmh 29.24 in990.2 mb 0.00 in0.0 mm 0.00 in0.0 mm 0.43 in10.9 mm
08:05 AM 48.7°F9.3°C 42.3°F5.7°C 78% 23.0 mph WSW37.0 kmh WSW 43.0 mph69.2 kmh 29.23 in989.8 mb 0.00 in0.0 mm 0.00 in0.0 mm 0.43 in10.9 mm
08:04 AM 48.7°F9.3°C 42.1°F5.6°C 78% 24.0 mph WSW38.6 kmh WSW 43.0 mph69.2 kmh 29.24 in990.2 mb 0.00 in0.0 mm 0.00 in0.0 mm 0.43 in10.9 mm
08:03 AM 48.7°F9.3°C 42.1°F5.6°C 78% 24.0 mph WSW38.6 kmh WSW 43.0 mph69.2 kmh 29.24 in990.2 mb 0.00 in0.0 mm 0.00 in0.0 mm 0.43 in10.9 mm
08:02 AM 48.7°F9.3°C 42.1°F5.6°C 78% 24.0 mph WSW38.6 kmh WSW 43.0 mph69.2 kmh 29.23 in989.8 mb 0.00 in0.0 mm 0.00 in0.0 mm 0.43 in10.9 mm
08:01 AM 48.6°F9.2°C 42.1°F5.6°C 78% 23.0 mph WSW37.0 kmh WSW 43.0 mph69.2 kmh 29.23 in989.8 mb 0.00 in0.0 mm 0.00 in0.0 mm 0.43 in10.9 mm
08:00 AM 48.6°F9.2°C 42.1°F5.6°C 78% 23.0 mph WSW37.0 kmh WSW 43.0 mph69.2 kmh 29.23 in989.8 mb 0.00 in0.0 mm 0.00 in0.0 mm 0.43 in10.9 mm
07:59 AM 48.6°F9.2°C 42.1°F5.6°C 78% 22.0 mph WSW35.4 kmh WSW 43.0 mph69.2 kmh 29.23 in989.8 mb 0.00 in0.0 mm 0.00 in0.0 mm 0.43 in10.9 mm
07:58 AM 48.6°F9.2°C 42.1°F5.6°C 78% 22.0 mph WSW35.4 kmh WSW 43.0 mph69.2 kmh 29.22 in989.5 mb 0.00 in0.0 mm 0.00 in0.0 mm 0.43 in10.9 mm
07:57 AM 48.6°F9.2°C 42.3°F5.7°C 79% 21.0 mph WSW33.8 kmh WSW 43.0 mph69.2 kmh 29.23 in989.8 mb 0.00 in0.0 mm 0.00 in0.0 mm 0.43 in10.9 mm
07:56 AM 48.6°F9.2°C 42.3°F5.7°C 79% 21.0 mph WSW33.8 kmh WSW 43.0 mph69.2 kmh 29.22 in989.5 mb 0.00 in0.0 mm 0.00 in0.0 mm 0.43 in10.9 mm
07:55 AM 48.6°F9.2°C 42.3°F5.7°C 79% 21.0 mph WSW33.8 kmh WSW 43.0 mph69.2 kmh 29.22 in989.5 mb 0.00 in0.0 mm 0.00 in0.0 mm 0.43 in10.9 mm
07:54 AM 48.6°F9.2°C 42.6°F5.9°C 80% 20.0 mph WSW32.2 kmh WSW 43.0 mph69.2 kmh 29.23 in989.8 mb 0.00 in0.0 mm 0.00 in0.0 mm 0.43 in10.9 mm
07:53 AM 48.6°F9.2°C 42.6°F5.9°C 80% 19.0 mph WSW30.6 kmh WSW 34.0 mph54.7 kmh 29.22 in989.5 mb 0.00 in0.0 mm 0.00 in0.0 mm 0.43 in10.9 mm
07:52 AM 48.6°F9.2°C 42.6°F5.9°C 80% 19.0 mph WSW30.6 kmh WSW 34.0 mph54.7 kmh 29.22 in989.5 mb 0.00 in0.0 mm 0.00 in0.0 mm 0.43 in10.9 mm
07:51 AM 48.6°F9.2°C 42.6°F5.9°C 80% 19.0 mph WSW30.6 kmh WSW 36.0 mph57.9 kmh 29.23 in989.8 mb 0.00 in0.0 mm 0.00 in0.0 mm 0.43 in10.9 mm
07:50 AM 48.6°F9.2°C 42.6°F5.9°C 80% 19.0 mph WSW30.6 kmh WSW 36.0 mph57.9 kmh 29.22 in989.5 mb 0.00 in0.0 mm 0.00 in0.0 mm 0.43 in10.9 mm
07:49 AM 48.6°F9.2°C 42.6°F5.9°C 80% 19.0 mph WSW30.6 kmh WSW 36.0 mph57.9 kmh 29.22 in989.5 mb 0.00 in0.0 mm 0.00 in0.0 mm 0.43 in10.9 mm
07:48 AM 48.6°F9.2°C 42.6°F5.9°C 80% 18.0 mph WSW29.0 kmh WSW 36.0 mph57.9 kmh 29.22 in989.5 mb 0.00 in0.0 mm 0.00 in0.0 mm 0.43 in10.9 mm
07:47 AM 48.6°F9.2°C 42.6°F5.9°C 80% 19.0 mph WSW30.6 kmh WSW 36.0 mph57.9 kmh 29.22 in989.5 mb 0.00 in0.0 mm 0.00 in0.0 mm 0.43 in10.9 mm
07:46 AM 48.6°F9.2°C 42.6°F5.9°C 80% 19.0 mph WSW30.6 kmh WSW 36.0 mph57.9 kmh 29.22 in989.5 mb 0.00 in0.0 mm 0.00 in0.0 mm 0.43 in10.9 mm
07:45 AM 48.6°F9.2°C 42.6°F5.9°C 80% 18.0 mph WSW29.0 kmh WSW 36.0 mph57.9 kmh 29.22 in989.5 mb 0.00 in0.0 mm 0.00 in0.0 mm 0.43 in10.9 mm
07:44 AM 48.6°F9.2°C 42.6°F5.9°C 80% 18.0 mph WSW29.0 kmh WSW 36.0 mph57.9 kmh 29.21 in989.2 mb 0.00 in0.0 mm 0.00 in0.0 mm 0.43 in10.9 mm
07:43 AM 48.6°F9.2°C 42.6°F5.9°C 80% 18.0 mph WSW29.0 kmh WSW 36.0 mph57.9 kmh 29.21 in989.2 mb 0.00 in0.0 mm 0.00 in0.0 mm 0.43 in10.9 mm
07:42 AM 48.6°F9.2°C 42.6°F5.9°C 80% 19.0 mph WSW30.6 kmh WSW 36.0 mph57.9 kmh 29.21 in989.2 mb 0.00 in0.0 mm 0.00 in0.0 mm 0.43 in10.9 mm
07:41 AM 48.6°F9.2°C 42.6°F5.9°C 80% 18.0 mph WSW29.0 kmh WSW 39.0 mph62.8 kmh 29.21 in989.2 mb 0.00 in0.0 mm 0.00 in0.0 mm 0.43 in10.9 mm
07:40 AM 48.6°F9.2°C 42.6°F5.9°C 80% 18.0 mph WSW29.0 kmh WSW 39.0 mph62.8 kmh 29.21 in989.2 mb 0.00 in0.0 mm 0.00 in0.0 mm 0.43 in10.9 mm
07:39 AM 48.6°F9.2°C 42.6°F5.9°C 80% 18.0 mph WSW29.0 kmh WSW 39.0 mph62.8 kmh 29.21 in989.2 mb 0.00 in0.0 mm 0.00 in0.0 mm 0.43 in10.9 mm
07:38 AM 48.6°F9.2°C 42.6°F5.9°C 80% 19.0 mph WSW30.6 kmh WSW 39.0 mph62.8 kmh 29.21 in989.2 mb 0.00 in0.0 mm 0.00 in0.0 mm 0.43 in10.9 mm
07:37 AM 48.4°F9.1°C 42.4°F5.8°C 80% 19.0 mph WSW30.6 kmh WSW 39.0 mph62.8 kmh 29.21 in989.2 mb 0.00 in0.0 mm 0.00 in0.0 mm 0.43 in10.9 mm
07:36 AM 48.4°F9.1°C 42.4°F5.8°C 80% 19.0 mph WSW30.6 kmh WSW 39.0 mph62.8 kmh 29.21 in989.2 mb 0.00 in0.0 mm 0.00 in0.0 mm 0.43 in10.9 mm
07:35 AM 48.4°F9.1°C 42.4°F5.8°C 80% 19.0 mph WSW30.6 kmh WSW 39.0 mph62.8 kmh 29.21 in989.2 mb 0.00 in0.0 mm 0.00 in0.0 mm 0.43 in10.9 mm
07:34 AM 48.4°F9.1°C 42.4°F5.8°C 80% 18.0 mph WSW29.0 kmh WSW 39.0 mph62.8 kmh 29.21 in989.2 mb 0.00 in0.0 mm 0.00 in0.0 mm 0.43 in10.9 mm
07:33 AM 48.4°F9.1°C 42.4°F5.8°C 80% 19.0 mph WSW30.6 kmh WSW 39.0 mph62.8 kmh 29.21 in989.2 mb 0.00 in0.0 mm 0.00 in0.0 mm 0.43 in10.9 mm
07:32 AM 48.4°F9.1°C 42.4°F5.8°C 80% 18.0 mph WSW29.0 kmh WSW 39.0 mph62.8 kmh 29.21 in989.2 mb 0.00 in0.0 mm 0.00 in0.0 mm 0.43 in10.9 mm
07:31 AM 48.4°F9.1°C 42.4°F5.8°C 80% 19.0 mph WSW30.6 kmh WSW 32.0 mph51.5 kmh 29.21 in989.2 mb 0.00 in0.0 mm 0.00 in0.0 mm 0.43 in10.9 mm
07:30 AM 48.4°F9.1°C 42.4°F5.8°C 80% 19.0 mph WSW30.6 kmh WSW 32.0 mph51.5 kmh 29.21 in989.2 mb 0.00 in0.0 mm 0.00 in0.0 mm 0.43 in10.9 mm
07:29 AM 48.4°F9.1°C 42.4°F5.8°C 80% 19.0 mph WSW30.6 kmh WSW 32.0 mph51.5 kmh 29.21 in989.2 mb 0.00 in0.0 mm 0.00 in0.0 mm 0.43 in10.9 mm
07:28 AM 48.4°F9.1°C 42.4°F5.8°C 80% 19.0 mph WSW30.6 kmh WSW 32.0 mph51.5 kmh 29.20 in988.8 mb 0.00 in0.0 mm 0.00 in0.0 mm 0.43 in10.9 mm
07:27 AM 48.4°F9.1°C 42.4°F5.8°C 80% 19.0 mph WSW30.6 kmh WSW 32.0 mph51.5 kmh 29.21 in989.2 mb 0.00 in0.0 mm 0.00 in0.0 mm 0.43 in10.9 mm
07:26 AM 48.4°F9.1°C 42.4°F5.8°C 80% 18.0 mph WSW29.0 kmh WSW 32.0 mph51.5 kmh 29.20 in988.8 mb 0.00 in0.0 mm 0.00 in0.0 mm 0.43 in10.9 mm
07:25 AM 48.6°F9.2°C 42.6°F5.9°C 80% 19.0 mph WSW30.6 kmh WSW 32.0 mph51.5 kmh 29.20 in988.8 mb 0.00 in0.0 mm 0.00 in0.0 mm 0.43 in10.9 mm
07:24 AM 48.6°F9.2°C 42.6°F5.9°C 80% 19.0 mph WSW30.6 kmh WSW 32.0 mph51.5 kmh 29.20 in988.8 mb 0.00 in0.0 mm 0.00 in0.0 mm 0.43 in10.9 mm
07:23 AM 48.6°F9.2°C 42.6°F5.9°C 80% 18.0 mph WSW29.0 kmh WSW 32.0 mph51.5 kmh 29.20 in988.8 mb 0.00 in0.0 mm 0.00 in0.0 mm 0.43 in10.9 mm
07:22 AM 48.6°F9.2°C 42.6°F5.9°C 80% 18.0 mph WSW29.0 kmh WSW 32.0 mph51.5 kmh 29.20 in988.8 mb 0.00 in0.0 mm 0.00 in0.0 mm 0.43 in10.9 mm
07:21 AM 48.6°F9.2°C 42.6°F5.9°C 80% 18.0 mph WSW29.0 kmh WSW 32.0 mph51.5 kmh 29.20 in988.8 mb 0.00 in0.0 mm 0.00 in0.0 mm 0.43 in10.9 mm
07:20 AM 48.6°F9.2°C 42.6°F5.9°C 80% 17.0 mph WSW27.4 kmh WSW 32.0 mph51.5 kmh 29.20 in988.8 mb 0.00 in0.0 mm 0.00 in0.0 mm 0.43 in10.9 mm
07:19 AM 48.6°F9.2°C 42.6°F5.9°C 80% 16.0 mph WSW25.7 kmh WSW 28.0 mph45.1 kmh 29.20 in988.8 mb 0.00 in0.0 mm 0.00 in0.0 mm 0.43 in10.9 mm
07:18 AM 48.6°F9.2°C 42.6°F5.9°C 80% 16.0 mph WSW25.7 kmh WSW 28.0 mph45.1 kmh 29.20 in988.8 mb 0.00 in0.0 mm 0.00 in0.0 mm 0.43 in10.9 mm
07:17 AM 48.6°F9.2°C 42.6°F5.9°C 80% 16.0 mph WSW25.7 kmh WSW 28.0 mph45.1 kmh 29.20 in988.8 mb 0.00 in0.0 mm 0.00 in0.0 mm 0.43 in10.9 mm
07:16 AM 48.6°F9.2°C 42.6°F5.9°C 80% 16.0 mph WSW25.7 kmh WSW 28.0 mph45.1 kmh 29.20 in988.8 mb 0.00 in0.0 mm 0.00 in0.0 mm 0.43 in10.9 mm
07:15 AM 48.6°F9.2°C 42.6°F5.9°C 80% 16.0 mph WSW25.7 kmh WSW 28.0 mph45.1 kmh 29.20 in988.8 mb 0.00 in0.0 mm 0.00 in0.0 mm 0.43 in10.9 mm
07:14 AM 48.6°F9.2°C 42.6°F5.9°C 80% 16.0 mph WSW25.7 kmh WSW 26.0 mph41.8 kmh 29.20 in988.8 mb 0.00 in0.0 mm 0.00 in0.0 mm 0.43 in10.9 mm
07:13 AM 48.6°F9.2°C 42.6°F5.9°C 80% 16.0 mph WSW25.7 kmh WSW 26.0 mph41.8 kmh 29.20 in988.8 mb 0.00 in0.0 mm 0.00 in0.0 mm 0.43 in10.9 mm
07:12 AM 48.6°F9.2°C 42.6°F5.9°C 80% 17.0 mph WSW27.4 kmh WSW 28.0 mph45.1 kmh 29.20 in988.8 mb 0.00 in0.0 mm 0.00 in0.0 mm 0.43 in10.9 mm
07:11 AM 48.6°F9.2°C 42.6°F5.9°C 80% 17.0 mph WSW27.4 kmh WSW 35.0 mph56.3 kmh 29.20 in988.8 mb 0.00 in0.0 mm 0.00 in0.0 mm 0.43 in10.9 mm
07:10 AM 48.6°F9.2°C 42.6°F5.9°C 80% 18.0 mph WSW29.0 kmh WSW 35.0 mph56.3 kmh 29.20 in988.8 mb 0.00 in0.0 mm 0.00 in0.0 mm 0.43 in10.9 mm
07:09 AM 48.6°F9.2°C 42.6°F5.9°C 80% 18.0 mph WSW29.0 kmh WSW 35.0 mph56.3 kmh 29.20 in988.8 mb 0.00 in0.0 mm 0.00 in0.0 mm 0.43 in10.9 mm
07:08 AM 48.6°F9.2°C 42.6°F5.9°C 80% 18.0 mph WSW29.0 kmh WSW 35.0 mph56.3 kmh 29.20 in988.8 mb 0.00 in0.0 mm 0.00 in0.0 mm 0.43 in10.9 mm
07:07 AM 48.6°F9.2°C 42.6°F5.9°C 80% 17.0 mph WSW27.4 kmh WSW 35.0 mph56.3 kmh 29.20 in988.8 mb 0.00 in0.0 mm 0.00 in0.0 mm 0.43 in10.9 mm
07:06 AM 48.6°F9.2°C 42.6°F5.9°C 80% 17.0 mph WSW27.4 kmh WSW 35.0 mph56.3 kmh 29.20 in988.8 mb 0.00 in0.0 mm 0.00 in0.0 mm 0.43 in10.9 mm
07:05 AM 48.6°F9.2°C 42.6°F5.9°C 80% 17.0 mph WSW27.4 kmh WSW 35.0 mph56.3 kmh 29.20 in988.8 mb 0.00 in0.0 mm 0.00 in0.0 mm 0.43 in10.9 mm
07:04 AM 48.6°F9.2°C 42.6°F5.9°C 80% 18.0 mph WSW29.0 kmh WSW 35.0 mph56.3 kmh 29.20 in988.8 mb 0.00 in0.0 mm 0.00 in0.0 mm 0.43 in10.9 mm
07:03 AM 48.6°F9.2°C 42.6°F5.9°C 80% 18.0 mph WSW29.0 kmh WSW 35.0 mph56.3 kmh 29.20 in988.8 mb 0.00 in0.0 mm 0.00 in0.0 mm 0.43 in10.9 mm
07:02 AM 48.6°F9.2°C 43.0°F6.1°C 81% 18.0 mph WSW29.0 kmh WSW 36.0 mph57.9 kmh 29.20 in988.8 mb 0.00 in0.0 mm 0.00 in0.0 mm 0.43 in10.9 mm
07:01 AM 48.4°F9.1°C 42.8°F6.0°C 81% 17.0 mph WSW27.4 kmh WSW 36.0 mph57.9 kmh 29.20 in988.8 mb 0.00 in0.0 mm 0.00 in0.0 mm 0.43 in10.9 mm
07:00 AM 48.4°F9.1°C 42.8°F6.0°C 81% 16.0 mph WSW25.7 kmh WSW 36.0 mph57.9 kmh 29.20 in988.8 mb 0.00 in0.0 mm 0.00 in0.0 mm 0.43 in10.9 mm
06:59 AM 48.4°F9.1°C 42.8°F6.0°C 81% 16.0 mph WSW25.7 kmh WSW 36.0 mph57.9 kmh 29.20 in988.8 mb 0.00 in0.0 mm 0.00 in0.0 mm 0.43 in10.9 mm
06:58 AM 48.4°F9.1°C 43.2°F6.2°C 82% 16.0 mph WSW25.7 kmh WSW 36.0 mph57.9 kmh 29.20 in988.8 mb 0.00 in0.0 mm 0.00 in0.0 mm 0.43 in10.9 mm
06:57 AM 48.4°F9.1°C 43.2°F6.2°C 82% 16.0 mph WSW25.7 kmh WSW 36.0 mph57.9 kmh 29.20 in988.8 mb 0.00 in0.0 mm 0.00 in0.0 mm 0.43 in10.9 mm
06:56 AM 48.4°F9.1°C 43.2°F6.2°C 82% 16.0 mph WSW25.7 kmh WSW 36.0 mph57.9 kmh 29.19 in988.5 mb 0.00 in0.0 mm 0.00 in0.0 mm 0.43 in10.9 mm
06:55 AM 48.4°F9.1°C 42.8°F6.0°C 81% 15.0 mph WSW24.1 kmh WSW 36.0 mph57.9 kmh 29.19 in988.5 mb 0.00 in0.0 mm 0.00 in0.0 mm 0.43 in10.9 mm
06:54 AM 48.4°F9.1°C 43.0°F6.1°C 82% 15.0 mph WSW24.1 kmh WSW 36.0 mph57.9 kmh 29.19 in988.5 mb 0.00 in0.0 mm 0.00 in0.0 mm 0.43 in10.9 mm
06:53 AM 48.4°F9.1°C 43.0°F6.1°C 82% 15.0 mph WSW24.1 kmh WSW 36.0 mph57.9 kmh 29.19 in988.5 mb 0.00 in0.0 mm 0.00 in0.0 mm 0.43 in10.9 mm
06:52 AM 48.4°F9.1°C 43.0°F6.1°C 82% 15.0 mph WSW24.1 kmh WSW 30.0 mph48.3 kmh 29.20 in988.8 mb 0.00 in0.0 mm 0.00 in0.0 mm 0.43 in10.9 mm
06:51 AM 48.4°F9.1°C 43.0°F6.1°C 82% 15.0 mph WSW24.1 kmh WSW 30.0 mph48.3 kmh 29.20 in988.8 mb 0.00 in0.0 mm 0.00 in0.0 mm 0.43 in10.9 mm
06:50 AM 48.4°F9.1°C 43.0°F6.1°C 82% 15.0 mph WSW24.1 kmh WSW 30.0 mph48.3 kmh 29.20 in988.8 mb 0.00 in0.0 mm 0.00 in0.0 mm 0.43 in10.9 mm
06:49 AM 48.4°F9.1°C 43.0°F6.1°C 82% 15.0 mph WSW24.1 kmh WSW 30.0 mph48.3 kmh 29.20 in988.8 mb 0.00 in0.0 mm 0.00 in0.0 mm 0.43 in10.9 mm
06:48 AM 48.4°F9.1°C 43.3°F6.3°C 83% 16.0 mph WSW25.7 kmh WSW 30.0 mph48.3 kmh 29.20 in988.8 mb 0.00 in0.0 mm 0.00 in0.0 mm 0.43 in10.9 mm
06:47 AM 48.4°F9.1°C 43.3°F6.3°C 83% 16.0 mph WSW25.7 kmh WSW 30.0 mph48.3 kmh 29.20 in988.8 mb 0.00 in0.0 mm 0.00 in0.0 mm 0.43 in10.9 mm
06:46 AM 48.2°F9.0°C 43.3°F6.3°C 83% 16.0 mph WSW25.7 kmh WSW 30.0 mph48.3 kmh 29.20 in988.8 mb 0.00 in0.0 mm 0.00 in0.0 mm 0.43 in10.9 mm
06:45 AM 48.2°F9.0°C 43.3°F6.3°C 83% 16.0 mph WSW25.7 kmh WSW 30.0 mph48.3 kmh 29.19 in988.5 mb 0.00 in0.0 mm 0.00 in0.0 mm 0.43 in10.9 mm
06:44 AM 48.2°F9.0°C 43.3°F6.3°C 83% 16.0 mph WSW25.7 kmh WSW 30.0 mph48.3 kmh 29.19 in988.5 mb 0.00 in0.0 mm 0.00 in0.0 mm 0.43 in10.9 mm
06:43 AM 48.2°F9.0°C 43.5°F6.4°C 84% 16.0 mph WSW25.7 kmh WSW 30.0 mph48.3 kmh 29.20 in988.8 mb 0.00 in0.0 mm 0.00 in0.0 mm 0.43 in10.9 mm
06:42 AM 48.2°F9.0°C 43.5°F6.4°C 84% 16.0 mph WSW25.7 kmh WSW 29.0 mph46.7 kmh 29.19 in988.5 mb 0.00 in0.0 mm 0.00 in0.0 mm 0.43 in10.9 mm
06:41 AM 48.2°F9.0°C 43.5°F6.4°C 84% 17.0 mph WSW27.4 kmh WSW 29.0 mph46.7 kmh 29.20 in988.8 mb 0.00 in0.0 mm 0.00 in0.0 mm 0.43 in10.9 mm
06:40 AM 48.2°F9.0°C 43.5°F6.4°C 84% 17.0 mph WSW27.4 kmh WSW 29.0 mph46.7 kmh 29.20 in988.8 mb 0.00 in0.0 mm 0.00 in0.0 mm 0.43 in10.9 mm
06:39 AM 48.2°F9.0°C 43.5°F6.4°C 84% 16.0 mph WSW25.7 kmh WSW 29.0 mph46.7 kmh 29.19 in988.5 mb 0.00 in0.0 mm 0.00 in0.0 mm 0.43 in10.9 mm
06:38 AM 48.2°F9.0°C 43.9°F6.6°C 85% 16.0 mph WSW25.7 kmh WSW 29.0 mph46.7 kmh 29.19 in988.5 mb 0.00 in0.0 mm 0.00 in0.0 mm 0.43 in10.9 mm
06:37 AM 48.2°F9.0°C 43.9°F6.6°C 85% 16.0 mph WSW25.7 kmh WSW 29.0 mph46.7 kmh 29.19 in988.5 mb 0.00 in0.0 mm 0.00 in0.0 mm 0.43 in10.9 mm
06:36 AM 48.2°F9.0°C 43.9°F6.6°C 85% 17.0 mph WSW27.4 kmh WSW 29.0 mph46.7 kmh 29.19 in988.5 mb 0.00 in0.0 mm 0.00 in0.0 mm 0.43 in10.9 mm
06:35 AM 48.2°F9.0°C 43.9°F6.6°C 85% 17.0 mph WSW27.4 kmh WSW 30.0 mph48.3 kmh 29.19 in988.5 mb 0.00 in0.0 mm 0.00 in0.0 mm 0.43 in10.9 mm
06:34 AM 48.2°F9.0°C 43.9°F6.6°C 85% 17.0 mph WSW27.4 kmh WSW 30.0 mph48.3 kmh 29.19 in988.5 mb 0.00 in0.0 mm 0.00 in0.0 mm 0.43 in10.9 mm
06:33 AM 48.2°F9.0°C 43.9°F6.6°C 85% 17.0 mph WSW27.4 kmh WSW 35.0 mph56.3 kmh 29.19 in988.5 mb 0.00 in0.0 mm 0.00 in0.0 mm 0.43 in10.9 mm
06:32 AM 48.0°F8.9°C 43.9°F6.6°C 85% 17.0 mph WSW27.4 kmh WSW 35.0 mph56.3 kmh 29.19 in988.5 mb 0.00 in0.0 mm 0.00 in0.0 mm 0.43 in10.9 mm
06:31 AM 48.0°F8.9°C 43.9°F6.6°C 85% 16.0 mph WSW25.7 kmh WSW 35.0 mph56.3 kmh 29.20 in988.8 mb 0.00 in0.0 mm 0.00 in0.0 mm 0.43 in10.9 mm
06:30 AM 48.0°F8.9°C 44.1°F6.7°C 86% 16.0 mph WSW25.7 kmh WSW 35.0 mph56.3 kmh 29.19 in988.5 mb 0.00 in0.0 mm 0.00 in0.0 mm 0.43 in10.9 mm
06:29 AM 48.0°F8.9°C 44.1°F6.7°C 86% 17.0 mph WSW27.4 kmh WSW 35.0 mph56.3 kmh 29.19 in988.5 mb 0.00 in0.0 mm 0.00 in0.0 mm 0.43 in10.9 mm
06:28 AM 48.0°F8.9°C 44.1°F6.7°C 86% 17.0 mph WSW27.4 kmh WSW 35.0 mph56.3 kmh 29.19 in988.5 mb 0.00 in0.0 mm 0.00 in0.0 mm 0.43 in10.9 mm
06:27 AM 48.0°F8.9°C 44.1°F6.7°C 86% 17.0 mph WSW27.4 kmh WSW 35.0 mph56.3 kmh 29.19 in988.5 mb 0.00 in0.0 mm 0.00 in0.0 mm 0.43 in10.9 mm
06:26 AM 48.0°F8.9°C 44.1°F6.7°C 86% 16.0 mph WSW25.7 kmh WSW 35.0 mph56.3 kmh 29.19 in988.5 mb 0.00 in0.0 mm 0.00 in0.0 mm 0.43 in10.9 mm
06:25 AM 48.0°F8.9°C 44.1°F6.7°C 86% 17.0 mph WSW27.4 kmh WSW 35.0 mph56.3 kmh 29.19 in988.5 mb 0.00 in0.0 mm 0.00 in0.0 mm 0.43 in10.9 mm
06:24 AM 48.0°F8.9°C 44.4°F6.9°C 87% 16.0 mph WSW25.7 kmh WSW 35.0 mph56.3 kmh 29.18 in988.1 mb 0.00 in0.0 mm 0.00 in0.0 mm 0.43 in10.9 mm
06:23 AM 48.0°F8.9°C 44.4°F6.9°C 87% 16.0 mph WSW25.7 kmh WSW 31.0 mph49.9 kmh 29.18 in988.1 mb 0.00 in0.0 mm 0.00 in0.0 mm 0.43 in10.9 mm
06:22 AM 48.0°F8.9°C 44.4°F6.9°C 87% 16.0 mph WSW25.7 kmh WSW 31.0 mph49.9 kmh 29.18 in988.1 mb 0.00 in0.0 mm 0.00 in0.0 mm 0.43 in10.9 mm
06:21 AM 48.0°F8.9°C 44.4°F6.9°C 87% 16.0 mph WSW25.7 kmh WSW 31.0 mph49.9 kmh 29.18 in988.1 mb 0.00 in0.0 mm 0.00 in0.0 mm 0.43 in10.9 mm
06:20 AM 48.0°F8.9°C 44.8°F7.1°C 88% 15.0 mph WSW24.1 kmh WSW 31.0 mph49.9 kmh 29.19 in988.5 mb 0.00 in0.0 mm 0.00 in0.0 mm 0.43 in10.9 mm
06:19 AM 48.0°F8.9°C 44.8°F7.1°C 88% 15.0 mph WSW24.1 kmh WSW 31.0 mph49.9 kmh 29.18 in988.1 mb 0.00 in0.0 mm 0.00 in0.0 mm 0.43 in10.9 mm
06:18 AM 48.2°F9.0°C 44.8°F7.1°C 88% 15.0 mph WSW24.1 kmh WSW 31.0 mph49.9 kmh 29.18 in988.1 mb 0.00 in0.0 mm 0.00 in0.0 mm 0.43 in10.9 mm
06:17 AM 48.0°F8.9°C 44.8°F7.1°C 88% 15.0 mph WSW24.1 kmh WSW 31.0 mph49.9 kmh 29.18 in988.1 mb 0.00 in0.0 mm 0.00 in0.0 mm 0.43 in10.9 mm
06:16 AM 48.0°F8.9°C 44.8°F7.1°C 88% 15.0 mph WSW24.1 kmh WSW 31.0 mph49.9 kmh 29.18 in988.1 mb 0.00 in0.0 mm 0.00 in0.0 mm 0.43 in10.9 mm
06:15 AM 48.0°F8.9°C 44.8°F7.1°C 88% 14.0 mph WSW22.5 kmh WSW 31.0 mph49.9 kmh 29.19 in988.5 mb 0.00 in0.0 mm 0.00 in0.0 mm 0.43 in10.9 mm
06:14 AM 48.2°F9.0°C 44.8°F7.1°C 88% 14.0 mph WSW22.5 kmh WSW 27.0 mph43.5 kmh 29.18 in988.1 mb 0.00 in0.0 mm 0.00 in0.0 mm 0.43 in10.9 mm
06:13 AM 48.0°F8.9°C 44.8°F7.1°C 88% 14.0 mph WSW22.5 kmh WSW 25.0 mph40.2 kmh 29.18 in988.1 mb 0.00 in0.0 mm 0.00 in0.0 mm 0.43 in10.9 mm
06:12 AM 48.0°F8.9°C 44.8°F7.1°C 88% 14.0 mph WSW22.5 kmh WSW 25.0 mph40.2 kmh 29.18 in988.1 mb 0.00 in0.0 mm 0.00 in0.0 mm 0.43 in10.9 mm
06:11 AM 48.0°F8.9°C 44.8°F7.1°C 88% 15.0 mph WSW24.1 kmh WSW 28.0 mph45.1 kmh 29.18 in988.1 mb 0.00 in0.0 mm 0.00 in0.0 mm 0.43 in10.9 mm
06:10 AM 48.0°F8.9°C 44.8°F7.1°C 88% 15.0 mph WSW24.1 kmh WSW 28.0 mph45.1 kmh 29.17 in987.8 mb 0.00 in0.0 mm 0.00 in0.0 mm 0.43 in10.9 mm
06:09 AM 48.0°F8.9°C 44.8°F7.1°C 88% 16.0 mph WSW25.7 kmh WSW 34.0 mph54.7 kmh 29.17 in987.8 mb 0.00 in0.0 mm 0.00 in0.0 mm 0.43 in10.9 mm
06:08 AM 48.0°F8.9°C 45.0°F7.2°C 89% 16.0 mph WSW25.7 kmh WSW 34.0 mph54.7 kmh 29.18 in988.1 mb 0.00 in0.0 mm 0.00 in0.0 mm 0.43 in10.9 mm
06:07 AM 48.0°F8.9°C 44.8°F7.1°C 88% 15.0 mph WSW24.1 kmh WSW 34.0 mph54.7 kmh 29.17 in987.8 mb 0.00 in0.0 mm 0.00 in0.0 mm 0.43 in10.9 mm
06:06 AM 48.0°F8.9°C 45.0°F7.2°C 89% 16.0 mph WSW25.7 kmh WSW 34.0 mph54.7 kmh 29.17 in987.8 mb 0.00 in0.0 mm 0.00 in0.0 mm 0.43 in10.9 mm
06:05 AM 48.0°F8.9°C 45.0°F7.2°C 89% 16.0 mph WSW25.7 kmh WSW 34.0 mph54.7 kmh 29.17 in987.8 mb 0.00 in0.0 mm 0.00 in0.0 mm 0.43 in10.9 mm
06:04 AM 48.0°F8.9°C 45.0°F7.2°C 89% 17.0 mph WSW27.4 kmh WSW 34.0 mph54.7 kmh 29.17 in987.8 mb 0.00 in0.0 mm 0.00 in0.0 mm 0.43 in10.9 mm
06:03 AM 48.0°F8.9°C 45.0°F7.2°C 89% 17.0 mph WSW27.4 kmh WSW 34.0 mph54.7 kmh 29.17 in987.8 mb 0.00 in0.0 mm 0.00 in0.0 mm 0.43 in10.9 mm
06:02 AM 47.8°F8.8°C 44.8°F7.1°C 89% 17.0 mph WSW27.4 kmh WSW 34.0 mph54.7 kmh 29.17 in987.8 mb 0.00 in0.0 mm 0.00 in0.0 mm 0.43 in10.9 mm
06:01 AM 47.8°F8.8°C 44.8°F7.1°C 89% 17.0 mph WSW27.4 kmh WSW 34.0 mph54.7 kmh 29.17 in987.8 mb 0.00 in0.0 mm 0.00 in0.0 mm 0.43 in10.9 mm
06:00 AM 47.8°F8.8°C 44.8°F7.1°C 89% 17.0 mph WSW27.4 kmh WSW 34.0 mph54.7 kmh 29.17 in987.8 mb 0.00 in0.0 mm 0.00 in0.0 mm 0.43 in10.9 mm
05:59 AM 47.8°F8.8°C 45.0°F7.2°C 90% 17.0 mph WSW27.4 kmh WSW 31.0 mph49.9 kmh 29.17 in987.8 mb 0.00 in0.0 mm 0.00 in0.0 mm 0.43 in10.9 mm
05:58 AM 47.7°F8.7°C 45.0°F7.2°C 90% 17.0 mph WSW27.4 kmh WSW 30.0 mph48.3 kmh 29.17 in987.8 mb 0.00 in0.0 mm 0.00 in0.0 mm 0.43 in10.9 mm
05:57 AM 47.7°F8.7°C 45.0°F7.2°C 90% 17.0 mph WSW27.4 kmh WSW 30.0 mph48.3 kmh 29.17 in987.8 mb 0.00 in0.0 mm 0.00 in0.0 mm 0.43 in10.9 mm
05:56 AM 47.7°F8.7°C 44.8°F7.1°C 90% 16.0 mph WSW25.7 kmh WSW 30.0 mph48.3 kmh 29.16 in987.5 mb 0.00 in0.0 mm 0.00 in0.0 mm 0.43 in10.9 mm
05:55 AM 47.7°F8.7°C 44.8°F7.1°C 90% 16.0 mph WSW25.7 kmh WSW 30.0 mph48.3 kmh 29.16 in987.5 mb 0.00 in0.0 mm 0.00 in0.0 mm 0.43 in10.9 mm
05:54 AM 47.5°F8.6°C 45.0°F7.2°C 91% 16.0 mph WSW25.7 kmh WSW 30.0 mph48.3 kmh 29.16 in987.5 mb 0.00 in0.0 mm 0.00 in0.0 mm 0.43 in10.9 mm
05:53 AM 47.5°F8.6°C 45.0°F7.2°C 91% 16.0 mph WSW25.7 kmh WSW 30.0 mph48.3 kmh 29.16 in987.5 mb 0.00 in0.0 mm 0.00 in0.0 mm 0.43 in10.9 mm
05:52 AM 47.5°F8.6°C 45.0°F7.2°C 91% 16.0 mph WSW25.7 kmh WSW 30.0 mph48.3 kmh 29.16 in987.5 mb 0.00 in0.0 mm 0.00 in0.0 mm 0.43 in10.9 mm
05:51 AM 47.5°F8.6°C 45.0°F7.2°C 91% 15.0 mph WSW24.1 kmh WSW 30.0 mph48.3 kmh 29.16 in987.5 mb 0.00 in0.0 mm 0.00 in0.0 mm 0.43 in10.9 mm
05:50 AM 47.5°F8.6°C 45.0°F7.2°C 91% 14.0 mph WSW22.5 kmh WSW 30.0 mph48.3 kmh 29.16 in987.5 mb 0.00 in0.0 mm 0.00 in0.0 mm 0.43 in10.9 mm
05:49 AM 47.5°F8.6°C 45.0°F7.2°C 91% 15.0 mph WSW24.1 kmh WSW 29.0 mph46.7 kmh 29.16 in987.5 mb 0.00 in0.0 mm 0.00 in0.0 mm 0.43 in10.9 mm
05:48 AM 47.5°F8.6°C 45.0°F7.2°C 91% 15.0 mph WSW24.1 kmh WSW 29.0 mph46.7 kmh 29.16 in987.5 mb 0.00 in0.0 mm 0.00 in0.0 mm 0.43 in10.9 mm
05:47 AM 47.5°F8.6°C 45.0°F7.2°C 91% 15.0 mph WSW24.1 kmh WSW 29.0 mph46.7 kmh 29.16 in987.5 mb 0.00 in0.0 mm 0.00 in0.0 mm 0.43 in10.9 mm
05:46 AM 47.5°F8.6°C 45.0°F7.2°C 91% 15.0 mph WSW24.1 kmh WSW 29.0 mph46.7 kmh 29.16 in987.5 mb 0.00 in0.0 mm 0.00 in0.0 mm 0.43 in10.9 mm
05:45 AM 47.5°F8.6°C 45.1°F7.3°C 92% 16.0 mph WSW25.7 kmh WSW 29.0 mph46.7 kmh 29.16 in987.5 mb 0.00 in0.0 mm 0.00 in0.0 mm 0.43 in10.9 mm
05:44 AM 47.5°F8.6°C 45.1°F7.3°C 92% 15.0 mph WSW24.1 kmh WSW 29.0 mph46.7 kmh 29.16 in987.5 mb 0.00 in0.0 mm 0.00 in0.0 mm 0.43 in10.9 mm
05:43 AM 47.5°F8.6°C 45.0°F7.2°C 91% 15.0 mph WSW24.1 kmh WSW 29.0 mph46.7 kmh 29.16 in987.5 mb 0.00 in0.0 mm 0.00 in0.0 mm 0.43 in10.9 mm
05:42 AM 47.5°F8.6°C 45.1°F7.3°C 92% 15.0 mph WSW24.1 kmh WSW 29.0 mph46.7 kmh 29.16 in987.5 mb 0.00 in0.0 mm 0.00 in0.0 mm 0.43 in10.9 mm
05:41 AM 47.5°F8.6°C 45.1°F7.3°C 92% 15.0 mph WSW24.1 kmh WSW 29.0 mph46.7 kmh 29.15 in987.1 mb 0.01 in0.3 mm 0.00 in0.0 mm 0.43 in10.9 mm
05:40 AM 47.5°F8.6°C 45.1°F7.3°C 92% 15.0 mph WSW24.1 kmh WSW 29.0 mph46.7 kmh 29.15 in987.1 mb 0.01 in0.3 mm 0.00 in0.0 mm 0.43 in10.9 mm
05:39 AM 47.5°F8.6°C 45.1°F7.3°C 92% 15.0 mph WSW24.1 kmh WSW 29.0 mph46.7 kmh 29.15 in987.1 mb 0.01 in0.3 mm 0.00 in0.0 mm 0.43 in10.9 mm
05:38 AM 47.5°F8.6°C 45.1°F7.3°C 92% 15.0 mph WSW24.1 kmh WSW 29.0 mph46.7 kmh 29.16 in987.5 mb 0.01 in0.3 mm 0.00 in0.0 mm 0.43 in10.9 mm
05:37 AM 47.3°F8.5°C 45.1°F7.3°C 92% 15.0 mph WSW24.1 kmh WSW 29.0 mph46.7 kmh 29.15 in987.1 mb 0.01 in0.3 mm 0.00 in0.0 mm 0.43 in10.9 mm
05:36 AM 47.3°F8.5°C 45.1°F7.3°C 92% 14.0 mph WSW22.5 kmh WSW 29.0 mph46.7 kmh 29.15 in987.1 mb 0.01 in0.3 mm 0.00 in0.0 mm 0.43 in10.9 mm
05:35 AM 47.3°F8.5°C 45.1°F7.3°C 92% 14.0 mph WSW22.5 kmh WSW 29.0 mph46.7 kmh 29.15 in987.1 mb 0.01 in0.3 mm 0.00 in0.0 mm 0.43 in10.9 mm
05:34 AM 47.3°F8.5°C 45.1°F7.3°C 92% 14.0 mph WSW22.5 kmh WSW 26.0 mph41.8 kmh 29.15 in987.1 mb 0.02 in0.5 mm 0.00 in0.0 mm 0.43 in10.9 mm
05:33 AM 47.3°F8.5°C 45.3°F7.4°C 93% 15.0 mph WSW24.1 kmh WSW 26.0 mph41.8 kmh 29.15 in987.1 mb 0.02 in0.5 mm 0.00 in0.0 mm 0.43 in10.9 mm
05:32 AM 47.3°F8.5°C 45.3°F7.4°C 93% 15.0 mph WSW24.1 kmh WSW 26.0 mph41.8 kmh 29.15 in987.1 mb 0.02 in0.5 mm 0.00 in0.0 mm 0.43 in10.9 mm
05:31 AM 47.3°F8.5°C 45.3°F7.4°C 93% 15.0 mph WSW24.1 kmh WSW 26.0 mph41.8 kmh 29.15 in987.1 mb 0.02 in0.5 mm 0.00 in0.0 mm 0.43 in10.9 mm
05:30 AM 47.3°F8.5°C 45.3°F7.4°C 93% 15.0 mph WSW24.1 kmh WSW 26.0 mph41.8 kmh 29.15 in987.1 mb 0.02 in0.5 mm 0.00 in0.0 mm 0.43 in10.9 mm
05:29 AM 47.3°F8.5°C 45.3°F7.4°C 93% 15.0 mph WSW24.1 kmh WSW 26.0 mph41.8 kmh 29.15 in987.1 mb 0.02 in0.5 mm 0.00 in0.0 mm 0.43 in10.9 mm
05:28 AM 47.1°F8.4°C 45.3°F7.4°C 93% 15.0 mph WSW24.1 kmh WSW 26.0 mph41.8 kmh 29.15 in987.1 mb 0.02 in0.5 mm 0.00 in0.0 mm 0.43 in10.9 mm
05:27 AM 47.1°F8.4°C 45.3°F7.4°C 93% 15.0 mph WSW24.1 kmh WSW 33.0 mph53.1 kmh 29.15 in987.1 mb 0.02 in0.5 mm 0.00 in0.0 mm 0.43 in10.9 mm
05:26 AM 47.1°F8.4°C 45.3°F7.4°C 93% 15.0 mph WSW24.1 kmh WSW 33.0 mph53.1 kmh 29.15 in987.1 mb 0.02 in0.5 mm 0.00 in0.0 mm 0.43 in10.9 mm
05:25 AM 47.1°F8.4°C 45.3°F7.4°C 93% 14.0 mph WSW22.5 kmh WSW 33.0 mph53.1 kmh 29.15 in987.1 mb 0.02 in0.5 mm 0.00 in0.0 mm 0.43 in10.9 mm
05:24 AM 47.1°F8.4°C 45.5°F7.5°C 94% 14.0 mph WSW22.5 kmh WSW 33.0 mph53.1 kmh 29.15 in987.1 mb 0.03 in0.8 mm 0.00 in0.0 mm 0.43 in10.9 mm
05:23 AM 47.1°F8.4°C 45.5°F7.5°C 94% 14.0 mph WSW22.5 kmh WSW 33.0 mph53.1 kmh 29.15 in987.1 mb 0.03 in0.8 mm 0.00 in0.0 mm 0.43 in10.9 mm
05:22 AM 47.1°F8.4°C 45.5°F7.5°C 94% 15.0 mph WSW24.1 kmh WSW 33.0 mph53.1 kmh 29.15 in987.1 mb 0.04 in1.0 mm 0.00 in0.0 mm 0.43 in10.9 mm
05:21 AM 46.9°F8.3°C 45.3°F7.4°C 94% 15.0 mph WSW24.1 kmh WSW 33.0 mph53.1 kmh 29.15 in987.1 mb 0.04 in1.0 mm 0.00 in0.0 mm 0.43 in10.9 mm
05:20 AM 46.9°F8.3°C 45.3°F7.4°C 94% 15.0 mph WSW24.1 kmh WSW 33.0 mph53.1 kmh 29.15 in987.1 mb 0.05 in1.3 mm 0.00 in0.0 mm 0.43 in10.9 mm
05:19 AM 46.9°F8.3°C 45.3°F7.4°C 94% 15.0 mph WSW24.1 kmh WSW 33.0 mph53.1 kmh 29.15 in987.1 mb 0.05 in1.3 mm 0.00 in0.0 mm 0.43 in10.9 mm
05:18 AM 46.9°F8.3°C 45.3°F7.4°C 94% 15.0 mph WSW24.1 kmh WSW 33.0 mph53.1 kmh 29.16 in987.5 mb 0.05 in1.3 mm 0.00 in0.0 mm 0.43 in10.9 mm
05:17 AM 46.8°F8.2°C 45.1°F7.3°C 94% 14.0 mph WSW22.5 kmh WSW 29.0 mph46.7 kmh 29.15 in987.1 mb 0.06 in1.5 mm 0.00 in0.0 mm 0.43 in10.9 mm
05:16 AM 46.8°F8.2°C 45.1°F7.3°C 94% 15.0 mph WSW24.1 kmh WSW 29.0 mph46.7 kmh 29.15 in987.1 mb 0.06 in1.5 mm 0.00 in0.0 mm 0.43 in10.9 mm
05:15 AM 46.8°F8.2°C 45.5°F7.5°C 95% 15.0 mph WSW24.1 kmh WSW 29.0 mph46.7 kmh 29.15 in987.1 mb 0.06 in1.5 mm 0.00 in0.0 mm 0.43 in10.9 mm
05:14 AM 46.8°F8.2°C 45.1°F7.3°C 94% 15.0 mph WSW24.1 kmh WSW 29.0 mph46.7 kmh 29.16 in987.5 mb 0.06 in1.5 mm 0.00 in0.0 mm 0.43 in10.9 mm
05:13 AM 46.8°F8.2°C 45.3°F7.4°C 95% 15.0 mph WSW24.1 kmh WSW 29.0 mph46.7 kmh 29.15 in987.1 mb 0.06 in1.5 mm 0.00 in0.0 mm 0.43 in10.9 mm
05:12 AM 46.8°F8.2°C 45.3°F7.4°C 95% 15.0 mph WSW24.1 kmh WSW 30.0 mph48.3 kmh 29.15 in987.1 mb 0.06 in1.5 mm 0.00 in0.0 mm 0.43 in10.9 mm
05:11 AM 46.6°F8.1°C 45.3°F7.4°C 95% 15.0 mph WSW24.1 kmh WSW 30.0 mph48.3 kmh 29.15 in987.1 mb 0.06 in1.5 mm 0.00 in0.0 mm 0.43 in10.9 mm
05:10 AM 46.6°F8.1°C 45.3°F7.4°C 95% 14.0 mph WSW22.5 kmh WSW 31.0 mph49.9 kmh 29.15 in987.1 mb 0.06 in1.5 mm 0.00 in0.0 mm 0.43 in10.9 mm
05:09 AM 46.6°F8.1°C 45.3°F7.4°C 95% 14.0 mph WSW22.5 kmh WSW 31.0 mph49.9 kmh 29.15 in987.1 mb 0.06 in1.5 mm 0.00 in0.0 mm 0.43 in10.9 mm
05:08 AM 46.6°F8.1°C 45.3°F7.4°C 95% 15.0 mph WSW24.1 kmh WSW 31.0 mph49.9 kmh 29.15 in987.1 mb 0.06 in1.5 mm 0.00 in0.0 mm 0.43 in10.9 mm
05:07 AM 46.6°F8.1°C 45.3°F7.4°C 95% 16.0 mph WSW25.7 kmh WSW 31.0 mph49.9 kmh 29.15 in987.1 mb 0.06 in1.5 mm 0.00 in0.0 mm 0.43 in10.9 mm
05:06 AM 46.8°F8.2°C 45.3°F7.4°C 95% 16.0 mph WSW25.7 kmh WSW 31.0 mph49.9 kmh 29.15 in987.1 mb 0.06 in1.5 mm 0.00 in0.0 mm 0.43 in10.9 mm
05:05 AM 46.8°F8.2°C 45.3°F7.4°C 95% 17.0 mph WSW27.4 kmh WSW 31.0 mph49.9 kmh 29.15 in987.1 mb 0.07 in1.8 mm 0.00 in0.0 mm 0.43 in10.9 mm
05:04 AM 46.8°F8.2°C 45.3°F7.4°C 95% 16.0 mph WSW25.7 kmh WSW 31.0 mph49.9 kmh 29.14 in986.8 mb 0.08 in2.0 mm 0.00 in0.0 mm 0.43 in10.9 mm
05:03 AM 46.6°F8.1°C 45.3°F7.4°C 95% 16.0 mph WSW25.7 kmh WSW 31.0 mph49.9 kmh 29.15 in987.1 mb 0.08 in2.0 mm 0.00 in0.0 mm 0.43 in10.9 mm
05:02 AM 46.6°F8.1°C 45.5°F7.5°C 96% 16.0 mph WSW25.7 kmh WSW 31.0 mph49.9 kmh 29.14 in986.8 mb 0.08 in2.0 mm 0.00 in0.0 mm 0.43 in10.9 mm
05:01 AM 46.6°F8.1°C 45.5°F7.5°C 96% 16.0 mph WSW25.7 kmh WSW 31.0 mph49.9 kmh 29.15 in987.1 mb 0.08 in2.0 mm 0.00 in0.0 mm 0.43 in10.9 mm
05:00 AM 46.6°F8.1°C 45.5°F7.5°C 96% 16.0 mph WSW25.7 kmh WSW 31.0 mph49.9 kmh 29.15 in987.1 mb 0.08 in2.0 mm 0.00 in0.0 mm 0.43 in10.9 mm
04:59 AM 46.6°F8.1°C 45.5°F7.5°C 96% 16.0 mph WSW25.7 kmh WSW 31.0 mph49.9 kmh 29.15 in987.1 mb 0.08 in2.0 mm 0.00 in0.0 mm 0.43 in10.9 mm
04:58 AM 46.6°F8.1°C 45.1°F7.3°C 95% 16.0 mph WSW25.7 kmh WSW 31.0 mph49.9 kmh 29.16 in987.5 mb 0.09 in2.3 mm 0.00 in0.0 mm 0.43 in10.9 mm
04:57 AM 46.6°F8.1°C 45.1°F7.3°C 95% 16.0 mph WSW25.7 kmh WSW 31.0 mph49.9 kmh 29.16 in987.5 mb 0.10 in2.5 mm 0.00 in0.0 mm 0.43 in10.9 mm
04:56 AM 46.6°F8.1°C 45.1°F7.3°C 95% 15.0 mph WSW24.1 kmh WSW 31.0 mph49.9 kmh 29.15 in987.1 mb 0.11 in2.8 mm 0.00 in0.0 mm 0.43 in10.9 mm
04:55 AM 46.4°F8.0°C 45.3°F7.4°C 96% 14.0 mph WSW22.5 kmh WSW 31.0 mph49.9 kmh 29.15 in987.1 mb 0.11 in2.8 mm 0.00 in0.0 mm 0.43 in10.9 mm
04:54 AM 46.4°F8.0°C 45.3°F7.4°C 96% 15.0 mph WSW24.1 kmh WSW 29.0 mph46.7 kmh 29.15 in987.1 mb 0.11 in2.8 mm 0.00 in0.0 mm 0.43 in10.9 mm
04:53 AM 46.4°F8.0°C 45.3°F7.4°C 96% 15.0 mph WSW24.1 kmh WSW 29.0 mph46.7 kmh 29.15 in987.1 mb 0.11 in2.8 mm 0.00 in0.0 mm 0.43 in10.9 mm
04:52 AM 46.4°F8.0°C 45.3°F7.4°C 96% 15.0 mph WSW24.1 kmh WSW 29.0 mph46.7 kmh 29.15 in987.1 mb 0.11 in2.8 mm 0.00 in0.0 mm 0.43 in10.9 mm
04:51 AM 46.4°F8.0°C 45.3°F7.4°C 96% 15.0 mph WSW24.1 kmh WSW 29.0 mph46.7 kmh 29.15 in987.1 mb 0.11 in2.8 mm 0.00 in0.0 mm 0.43 in10.9 mm
04:50 AM 46.4°F8.0°C 45.3°F7.4°C 96% 15.0 mph WSW24.1 kmh WSW 29.0 mph46.7 kmh 29.15 in987.1 mb 0.11 in2.8 mm 0.00 in0.0 mm 0.43 in10.9 mm
04:49 AM 46.4°F8.0°C 45.3°F7.4°C 96% 15.0 mph WSW24.1 kmh WSW 29.0 mph46.7 kmh 29.15 in987.1 mb 0.11 in2.8 mm 0.00 in0.0 mm 0.43 in10.9 mm
04:48 AM 46.6°F8.1°C 45.5°F7.5°C 96% 15.0 mph WSW24.1 kmh WSW 29.0 mph46.7 kmh 29.15 in987.1 mb 0.11 in2.8 mm 0.00 in0.0 mm 0.43 in10.9 mm
04:47 AM 46.6°F8.1°C 45.5°F7.5°C 96% 15.0 mph WSW24.1 kmh WSW 29.0 mph46.7 kmh 29.15 in987.1 mb 0.12 in3.0 mm 0.00 in0.0 mm 0.43 in10.9 mm
04:46 AM 46.6°F8.1°C 45.5°F7.5°C 96% 15.0 mph WSW24.1 kmh WSW 29.0 mph46.7 kmh 29.15 in987.1 mb 0.12 in3.0 mm 0.00 in0.0 mm 0.43 in10.9 mm
04:44 AM 46.6°F8.1°C 45.5°F7.5°C 96% 15.0 mph WSW24.1 kmh WSW 29.0 mph46.7 kmh 29.14 in986.8 mb 0.12 in3.0 mm 0.00 in0.0 mm 0.43 in10.9 mm
04:43 AM 46.6°F8.1°C 45.5°F7.5°C 96% 15.0 mph WSW24.1 kmh WSW 29.0 mph46.7 kmh 29.15 in987.1 mb 0.13 in3.3 mm 0.00 in0.0 mm 0.43 in10.9 mm
04:42 AM 46.8°F8.2°C 45.7°F7.6°C 96% 16.0 mph WSW25.7 kmh WSW 29.0 mph46.7 kmh 29.15 in987.1 mb 0.13 in3.3 mm 0.00 in0.0 mm 0.43 in10.9 mm
04:41 AM 46.8°F8.2°C 45.7°F7.6°C 96% 17.0 mph WSW27.4 kmh WSW 29.0 mph46.7 kmh 29.14 in986.8 mb 0.13 in3.3 mm 0.00 in0.0 mm 0.43 in10.9 mm
04:40 AM 46.9°F8.3°C 45.5°F7.5°C 95% 17.0 mph WSW27.4 kmh WSW 33.0 mph53.1 kmh 29.15 in987.1 mb 0.13 in3.3 mm 0.00 in0.0 mm 0.43 in10.9 mm
04:39 AM 46.9°F8.3°C 45.7°F7.6°C 95% 17.0 mph WSW27.4 kmh WSW 34.0 mph54.7 kmh 29.15 in987.1 mb 0.13 in3.3 mm 0.00 in0.0 mm 0.43 in10.9 mm
04:38 AM 47.1°F8.4°C 46.0°F7.8°C 96% 17.0 mph WSW27.4 kmh WSW 34.0 mph54.7 kmh 29.15 in987.1 mb 0.13 in3.3 mm 0.00 in0.0 mm 0.43 in10.9 mm
04:37 AM 47.3°F8.5°C 46.2°F7.9°C 96% 18.0 mph WSW29.0 kmh WSW 43.0 mph69.2 kmh 29.15 in987.1 mb 0.13 in3.3 mm 0.00 in0.0 mm 0.43 in10.9 mm
04:36 AM 47.5°F8.6°C 46.4°F8.0°C 96% 20.0 mph WSW32.2 kmh WSW 43.0 mph69.2 kmh 29.15 in987.1 mb 0.13 in3.3 mm 0.00 in0.0 mm 0.43 in10.9 mm
04:35 AM 47.5°F8.6°C 46.4°F8.0°C 96% 20.0 mph WSW32.2 kmh WSW 43.0 mph69.2 kmh 29.16 in987.5 mb 0.13 in3.3 mm 0.00 in0.0 mm 0.42 in10.7 mm
04:34 AM 47.7°F8.7°C 46.4°F8.0°C 95% 20.0 mph WSW32.2 kmh WSW 43.0 mph69.2 kmh 29.15 in987.1 mb 0.13 in3.3 mm 0.00 in0.0 mm 0.42 in10.7 mm
04:33 AM 47.8°F8.8°C 46.8°F8.2°C 96% 21.0 mph WSW33.8 kmh WSW 43.0 mph69.2 kmh 29.15 in987.1 mb 0.13 in3.3 mm 0.00 in0.0 mm 0.42 in10.7 mm
04:32 AM 48.0°F8.9°C 46.9°F8.3°C 96% 21.0 mph WSW33.8 kmh WSW 43.0 mph69.2 kmh 29.15 in987.1 mb 0.13 in3.3 mm 0.00 in0.0 mm 0.42 in10.7 mm
04:31 AM 48.4°F9.1°C 47.3°F8.5°C 96% 21.0 mph WSW33.8 kmh WSW 43.0 mph69.2 kmh 29.16 in987.5 mb 0.13 in3.3 mm 0.00 in0.0 mm 0.42 in10.7 mm
04:30 AM 48.7°F9.3°C 47.7°F8.7°C 96% 21.0 mph WSW33.8 kmh WSW 43.0 mph69.2 kmh 29.16 in987.5 mb 0.13 in3.3 mm 0.60 in15.2 mm 0.42 in10.7 mm
04:29 AM 48.7°F9.3°C 47.7°F8.7°C 96% 21.0 mph WSW33.8 kmh WSW 43.0 mph69.2 kmh 29.16 in987.5 mb 0.12 in3.0 mm 0.00 in0.0 mm 0.41 in10.4 mm
04:28 AM 48.9°F9.4°C 48.0°F8.9°C 97% 20.0 mph WSW32.2 kmh WSW 43.0 mph69.2 kmh 29.16 in987.5 mb 0.12 in3.0 mm 0.00 in0.0 mm 0.41 in10.4 mm
04:27 AM 48.9°F9.4°C 48.0°F8.9°C 97% 20.0 mph WSW32.2 kmh WSW 41.0 mph66.0 kmh 29.16 in987.5 mb 0.12 in3.0 mm 0.00 in0.0 mm 0.41 in10.4 mm
04:26 AM 48.9°F9.4°C 48.0°F8.9°C 97% 18.0 mph SW29.0 kmh SW 41.0 mph66.0 kmh 29.15 in987.1 mb 0.12 in3.0 mm 0.60 in15.2 mm 0.41 in10.4 mm
04:25 AM 48.7°F9.3°C 48.0°F8.9°C 97% 18.0 mph SW29.0 kmh SW 38.0 mph61.2 kmh 29.14 in986.8 mb 0.11 in2.8 mm 0.00 in0.0 mm 0.40 in10.2 mm
04:24 AM 48.7°F9.3°C 48.0°F8.9°C 97% 18.0 mph SW29.0 kmh SW 38.0 mph61.2 kmh 29.14 in986.8 mb 0.11 in2.8 mm 0.60 in15.2 mm 0.40 in10.2 mm
04:23 AM 48.7°F9.3°C 48.0°F8.9°C 97% 17.0 mph SW27.4 kmh SW 38.0 mph61.2 kmh 29.14 in986.8 mb 0.10 in2.5 mm 0.00 in0.0 mm 0.39 in9.9 mm
04:22 AM 48.7°F9.3°C 48.0°F8.9°C 97% 17.0 mph SW27.4 kmh SW 38.0 mph61.2 kmh 29.14 in986.8 mb 0.10 in2.5 mm 0.60 in15.2 mm 0.39 in9.9 mm
04:21 AM 48.7°F9.3°C 48.0°F8.9°C 97% 16.0 mph SW25.7 kmh SW 38.0 mph61.2 kmh 29.13 in986.5 mb 0.09 in2.3 mm 0.00 in0.0 mm 0.39 in9.9 mm
04:20 AM 48.7°F9.3°C 48.0°F8.9°C 97% 16.0 mph SW25.7 kmh SW 38.0 mph61.2 kmh 29.13 in986.5 mb 0.09 in2.3 mm 0.00 in0.0 mm 0.39 in9.9 mm
04:19 AM 48.7°F9.3°C 48.0°F8.9°C 97% 16.0 mph SW25.7 kmh SW 30.0 mph48.3 kmh 29.12 in986.1 mb 0.09 in2.3 mm 0.00 in0.0 mm 0.39 in9.9 mm
04:18 AM 48.7°F9.3°C 48.0°F8.9°C 97% 16.0 mph SW25.7 kmh SW 30.0 mph48.3 kmh 29.12 in986.1 mb 0.09 in2.3 mm 0.00 in0.0 mm 0.38 in9.7 mm
04:17 AM 48.7°F9.3°C 47.7°F8.7°C 96% 16.0 mph SW25.7 kmh SW 30.0 mph48.3 kmh 29.12 in986.1 mb 0.09 in2.3 mm 0.00 in0.0 mm 0.38 in9.7 mm
04:16 AM 48.7°F9.3°C 48.0°F8.9°C 97% 16.0 mph SW25.7 kmh SW 30.0 mph48.3 kmh 29.12 in986.1 mb 0.09 in2.3 mm 0.00 in0.0 mm 0.38 in9.7 mm
04:15 AM 48.7°F9.3°C 48.0°F8.9°C 97% 16.0 mph WSW25.7 kmh WSW 30.0 mph48.3 kmh 29.12 in986.1 mb 0.09 in2.3 mm 0.00 in0.0 mm 0.38 in9.7 mm
04:14 AM 48.9°F9.4°C 48.0°F8.9°C 97% 16.0 mph WSW25.7 kmh WSW 30.0 mph48.3 kmh 29.12 in986.1 mb 0.09 in2.3 mm 0.60 in15.2 mm 0.38 in9.7 mm
04:13 AM 48.9°F9.4°C 48.0°F8.9°C 97% 16.0 mph SW25.7 kmh SW 30.0 mph48.3 kmh 29.12 in986.1 mb 0.08 in2.0 mm 0.00 in0.0 mm 0.37 in9.4 mm
04:12 AM 48.9°F9.4°C 48.0°F8.9°C 97% 16.0 mph WSW25.7 kmh WSW 30.0 mph48.3 kmh 29.12 in986.1 mb 0.08 in2.0 mm 0.00 in0.0 mm 0.37 in9.4 mm
04:11 AM 48.9°F9.4°C 48.0°F8.9°C 97% 16.0 mph SW25.7 kmh SW 30.0 mph48.3 kmh 29.13 in986.5 mb 0.08 in2.0 mm 0.00 in0.0 mm 0.37 in9.4 mm
04:10 AM 48.9°F9.4°C 47.8°F8.8°C 96% 15.0 mph SW24.1 kmh SW 26.0 mph41.8 kmh 29.12 in986.1 mb 0.08 in2.0 mm 0.00 in0.0 mm 0.37 in9.4 mm
04:09 AM 48.9°F9.4°C 47.8°F8.8°C 96% 15.0 mph SW24.1 kmh SW 26.0 mph41.8 kmh 29.12 in986.1 mb 0.09 in2.3 mm 0.00 in0.0 mm 0.37 in9.4 mm
04:08 AM 48.9°F9.4°C 47.8°F8.8°C 96% 15.0 mph SW24.1 kmh SW 28.0 mph45.1 kmh 29.12 in986.1 mb 0.09 in2.3 mm 0.00 in0.0 mm 0.37 in9.4 mm
04:07 AM 48.9°F9.4°C 47.8°F8.8°C 96% 15.0 mph SW24.1 kmh SW 28.0 mph45.1 kmh 29.12 in986.1 mb 0.09 in2.3 mm 0.60 in15.2 mm 0.37 in9.4 mm
04:06 AM 48.9°F9.4°C 47.8°F8.8°C 96% 16.0 mph SW25.7 kmh SW 28.0 mph45.1 kmh 29.13 in986.5 mb 0.08 in2.0 mm 0.60 in15.2 mm 0.36 in9.1 mm
04:05 AM 48.9°F9.4°C 47.8°F8.8°C 96% 17.0 mph SW27.4 kmh SW 30.0 mph48.3 kmh 29.13 in986.5 mb 0.07 in1.8 mm 0.00 in0.0 mm 0.35 in8.9 mm
04:04 AM 48.9°F9.4°C 47.8°F8.8°C 96% 17.0 mph SW27.4 kmh SW 31.0 mph49.9 kmh 29.12 in986.1 mb 0.07 in1.8 mm 0.00 in0.0 mm 0.35 in8.9 mm
04:03 AM 48.9°F9.4°C 47.8°F8.8°C 96% 17.0 mph WSW27.4 kmh WSW 31.0 mph49.9 kmh 29.13 in986.5 mb 0.07 in1.8 mm 0.00 in0.0 mm 0.35 in8.9 mm
04:02 AM 48.9°F9.4°C 47.8°F8.8°C 96% 17.0 mph WSW27.4 kmh WSW 31.0 mph49.9 kmh 29.12 in986.1 mb 0.07 in1.8 mm 0.00 in0.0 mm 0.35 in8.9 mm
04:01 AM 49.1°F9.5°C 48.0°F8.9°C 96% 18.0 mph WSW29.0 kmh WSW 32.0 mph51.5 kmh 29.13 in986.5 mb 0.07 in1.8 mm 0.00 in0.0 mm 0.35 in8.9 mm
04:00 AM 49.1°F9.5°C 48.0°F8.9°C 96% 18.0 mph WSW29.0 kmh WSW 32.0 mph51.5 kmh 29.12 in986.1 mb 0.07 in1.8 mm 0.01 in0.3 mm 0.35 in8.9 mm
03:59 AM 49.1°F9.5°C 48.0°F8.9°C 96% 18.0 mph WSW29.0 kmh WSW 32.0 mph51.5 kmh 29.13 in986.5 mb 0.06 in1.5 mm 0.00 in0.0 mm 0.35 in8.9 mm
03:58 AM 49.1°F9.5°C 48.0°F8.9°C 96% 18.0 mph WSW29.0 kmh WSW 38.0 mph61.2 kmh 29.13 in986.5 mb 0.06 in1.5 mm 0.60 in15.2 mm 0.34 in8.6 mm
03:57 AM 49.1°F9.5°C 48.2°F9.0°C 97% 18.0 mph WSW29.0 kmh WSW 38.0 mph61.2 kmh 29.13 in986.5 mb 0.05 in1.3 mm 0.00 in0.0 mm 0.33 in8.4 mm
03:56 AM 49.1°F9.5°C 48.2°F9.0°C 97% 18.0 mph WSW29.0 kmh WSW 38.0 mph61.2 kmh 29.13 in986.5 mb 0.05 in1.3 mm 0.00 in0.0 mm 0.32 in8.1 mm
03:55 AM 49.1°F9.5°C 48.2°F9.0°C 97% 17.0 mph SW27.4 kmh SW 38.0 mph61.2 kmh 29.13 in986.5 mb 0.05 in1.3 mm 0.00 in0.0 mm 0.32 in8.1 mm
03:54 AM 49.1°F9.5°C 48.2°F9.0°C 97% 17.0 mph SW27.4 kmh SW 38.0 mph61.2 kmh 29.13 in986.5 mb 0.05 in1.3 mm 0.00 in0.0 mm 0.32 in8.1 mm
03:53 AM 49.1°F9.5°C 48.2°F9.0°C 97% 16.0 mph SW25.7 kmh SW 38.0 mph61.2 kmh 29.14 in986.8 mb 0.05 in1.3 mm 0.00 in0.0 mm 0.32 in8.1 mm
03:52 AM 49.1°F9.5°C 48.2°F9.0°C 97% 16.0 mph SW25.7 kmh SW 38.0 mph61.2 kmh 29.13 in986.5 mb 0.05 in1.3 mm 0.00 in0.0 mm 0.32 in8.1 mm
03:51 AM 48.9°F9.4°C 48.2°F9.0°C 97% 16.0 mph SW25.7 kmh SW 38.0 mph61.2 kmh 29.14 in986.8 mb 0.05 in1.3 mm 0.00 in0.0 mm 0.32 in8.1 mm
03:50 AM 48.9°F9.4°C 48.2°F9.0°C 97% 17.0 mph SW27.4 kmh SW 38.0 mph61.2 kmh 29.14 in986.8 mb 0.05 in1.3 mm 0.00 in0.0 mm 0.32 in8.1 mm
03:49 AM 48.9°F9.4°C 48.2°F9.0°C 97% 16.0 mph SW25.7 kmh SW 38.0 mph61.2 kmh 29.14 in986.8 mb 0.06 in1.5 mm 0.00 in0.0 mm 0.32 in8.1 mm
03:48 AM 48.9°F9.4°C 48.2°F9.0°C 97% 16.0 mph SW25.7 kmh SW 31.0 mph49.9 kmh 29.14 in986.8 mb 0.06 in1.5 mm 0.60 in15.2 mm 0.32 in8.1 mm
03:47 AM 48.9°F9.4°C 48.2°F9.0°C 97% 16.0 mph SW25.7 kmh SW 31.0 mph49.9 kmh 29.14 in986.8 mb 0.05 in1.3 mm 0.00 in0.0 mm 0.31 in7.9 mm
03:46 AM 48.9°F9.4°C 48.2°F9.0°C 97% 16.0 mph SW25.7 kmh SW 33.0 mph53.1 kmh 29.14 in986.8 mb 0.05 in1.3 mm 0.00 in0.0 mm 0.31 in7.9 mm
03:45 AM 48.9°F9.4°C 48.2°F9.0°C 97% 17.0 mph SW27.4 kmh SW 33.0 mph53.1 kmh 29.15 in987.1 mb 0.06 in1.5 mm 0.00 in0.0 mm 0.31 in7.9 mm
03:44 AM 48.9°F9.4°C 48.2°F9.0°C 97% 17.0 mph SW27.4 kmh SW 33.0 mph53.1 kmh 29.14 in986.8 mb 0.06 in1.5 mm 0.60 in15.2 mm 0.31 in7.9 mm
03:43 AM 48.9°F9.4°C 48.2°F9.0°C 97% 17.0 mph SW27.4 kmh SW 33.0 mph53.1 kmh 29.14 in986.8 mb 0.05 in1.3 mm 0.60 in15.2 mm 0.31 in7.9 mm
03:42 AM 48.9°F9.4°C 48.2°F9.0°C 97% 17.0 mph SW27.4 kmh SW 33.0 mph53.1 kmh 29.15 in987.1 mb 0.04 in1.0 mm 0.60 in15.2 mm 0.30 in7.6 mm
03:41 AM 48.9°F9.4°C 48.2°F9.0°C 97% 17.0 mph SW27.4 kmh SW 33.0 mph53.1 kmh 29.14 in986.8 mb 0.03 in0.8 mm 0.00 in0.0 mm 0.29 in7.4 mm
03:40 AM 48.9°F9.4°C 48.2°F9.0°C 97% 17.0 mph SW27.4 kmh SW 33.0 mph53.1 kmh 29.14 in986.8 mb 0.03 in0.8 mm 0.00 in0.0 mm 0.29 in7.4 mm
03:39 AM 48.9°F9.4°C 48.2°F9.0°C 97% 17.0 mph SW27.4 kmh SW 33.0 mph53.1 kmh 29.14 in986.8 mb 0.03 in0.8 mm 0.00 in0.0 mm 0.29 in7.4 mm
03:38 AM 48.9°F9.4°C 48.2°F9.0°C 97% 17.0 mph SW27.4 kmh SW 33.0 mph53.1 kmh 29.14 in986.8 mb 0.03 in0.8 mm 0.00 in0.0 mm 0.29 in7.4 mm
03:37 AM 48.9°F9.4°C 48.2°F9.0°C 97% 17.0 mph SW27.4 kmh SW 33.0 mph53.1 kmh 29.14 in986.8 mb 0.03 in0.8 mm 0.00 in0.0 mm 0.29 in7.4 mm
03:36 AM 48.9°F9.4°C 48.2°F9.0°C 97% 18.0 mph SW29.0 kmh SW 33.0 mph53.1 kmh 29.14 in986.8 mb 0.03 in0.8 mm 0.00 in0.0 mm 0.29 in7.4 mm
03:35 AM 48.9°F9.4°C 48.2°F9.0°C 97% 18.0 mph SW29.0 kmh SW 33.0 mph53.1 kmh 29.14 in986.8 mb 0.04 in1.0 mm 0.00 in0.0 mm 0.29 in7.4 mm
03:34 AM 48.9°F9.4°C 48.2°F9.0°C 97% 17.0 mph SW27.4 kmh SW 33.0 mph53.1 kmh 29.14 in986.8 mb 0.04 in1.0 mm 0.00 in0.0 mm 0.29 in7.4 mm
03:33 AM 48.9°F9.4°C 48.2°F9.0°C 97% 17.0 mph SW27.4 kmh SW 33.0 mph53.1 kmh 29.14 in986.8 mb 0.04 in1.0 mm 0.00 in0.0 mm 0.29 in7.4 mm
03:32 AM 48.9°F9.4°C 48.2°F9.0°C 97% 18.0 mph SW29.0 kmh SW 31.0 mph49.9 kmh 29.15 in987.1 mb 0.04 in1.0 mm 0.00 in0.0 mm 0.29 in7.4 mm
03:31 AM 48.9°F9.4°C 48.0°F8.9°C 97% 17.0 mph SW27.4 kmh SW 31.0 mph49.9 kmh 29.15 in987.1 mb 0.04 in1.0 mm 0.00 in0.0 mm 0.29 in7.4 mm
03:30 AM 48.9°F9.4°C 48.0°F8.9°C 97% 17.0 mph SW27.4 kmh SW 31.0 mph49.9 kmh 29.15 in987.1 mb 0.05 in1.3 mm 0.00 in0.0 mm 0.29 in7.4 mm
03:29 AM 48.9°F9.4°C 48.0°F8.9°C 97% 17.0 mph SW27.4 kmh SW 31.0 mph49.9 kmh 29.15 in987.1 mb 0.05 in1.3 mm 0.00 in0.0 mm 0.29 in7.4 mm
03:28 AM 48.9°F9.4°C 48.0°F8.9°C 97% 17.0 mph SW27.4 kmh SW 31.0 mph49.9 kmh 29.15 in987.1 mb 0.05 in1.3 mm 0.00 in0.0 mm 0.29 in7.4 mm
03:27 AM 48.7°F9.3°C 48.0°F8.9°C 97% 17.0 mph SW27.4 kmh SW 31.0 mph49.9 kmh 29.15 in987.1 mb 0.05 in1.3 mm 0.00 in0.0 mm 0.29 in7.4 mm
03:26 AM 48.7°F9.3°C 48.0°F8.9°C 97% 16.0 mph SW25.7 kmh SW 31.0 mph49.9 kmh 29.15 in987.1 mb 0.06 in1.5 mm 0.00 in0.0 mm 0.29 in7.4 mm
03:25 AM 48.7°F9.3°C 48.0°F8.9°C 97% 16.0 mph SW25.7 kmh SW 31.0 mph49.9 kmh 29.15 in987.1 mb 0.06 in1.5 mm 0.00 in0.0 mm 0.29 in7.4 mm
03:24 AM 48.7°F9.3°C 47.8°F8.8°C 97% 16.0 mph SW25.7 kmh SW 31.0 mph49.9 kmh 29.15 in987.1 mb 0.06 in1.5 mm 0.00 in0.0 mm 0.29 in7.4 mm
03:23 AM 48.7°F9.3°C 47.7°F8.7°C 96% 16.0 mph SW25.7 kmh SW 31.0 mph49.9 kmh 29.15 in987.1 mb 0.06 in1.5 mm 0.00 in0.0 mm 0.29 in7.4 mm
03:22 AM 48.7°F9.3°C 47.7°F8.7°C 96% 16.0 mph SW25.7 kmh SW 30.0 mph48.3 kmh 29.15 in987.1 mb 0.06 in1.5 mm 0.00 in0.0 mm 0.29 in7.4 mm
03:21 AM 48.7°F9.3°C 47.7°F8.7°C 96% 16.0 mph SW25.7 kmh SW 37.0 mph59.5 kmh 29.15 in987.1 mb 0.06 in1.5 mm 0.00 in0.0 mm 0.29 in7.4 mm
03:20 AM 48.7°F9.3°C 47.7°F8.7°C 96% 16.0 mph SW25.7 kmh SW 37.0 mph59.5 kmh 29.15 in987.1 mb 0.06 in1.5 mm 0.00 in0.0 mm 0.29 in7.4 mm
03:19 AM 48.7°F9.3°C 47.7°F8.7°C 96% 16.0 mph SW25.7 kmh SW 37.0 mph59.5 kmh 29.15 in987.1 mb 0.07 in1.8 mm 0.00 in0.0 mm 0.29 in7.4 mm
03:18 AM 48.7°F9.3°C 47.7°F8.7°C 96% 16.0 mph SW25.7 kmh SW 37.0 mph59.5 kmh 29.15 in987.1 mb 0.07 in1.8 mm 0.00 in0.0 mm 0.29 in7.4 mm
03:17 AM 48.7°F9.3°C 47.7°F8.7°C 96% 16.0 mph SW25.7 kmh SW 37.0 mph59.5 kmh 29.16 in987.5 mb 0.07 in1.8 mm 0.00 in0.0 mm 0.29 in7.4 mm
03:16 AM 48.7°F9.3°C 47.7°F8.7°C 96% 16.0 mph SW25.7 kmh SW 37.0 mph59.5 kmh 29.16 in987.5 mb 0.07 in1.8 mm 0.00 in0.0 mm 0.29 in7.4 mm
03:15 AM 48.7°F9.3°C 47.7°F8.7°C 96% 16.0 mph SW25.7 kmh SW 37.0 mph59.5 kmh 29.16 in987.5 mb 0.07 in1.8 mm 0.00 in0.0 mm 0.29 in7.4 mm
03:14 AM 48.7°F9.3°C 47.7°F8.7°C 96% 16.0 mph SW25.7 kmh SW 37.0 mph59.5 kmh 29.16 in987.5 mb 0.07 in1.8 mm 0.00 in0.0 mm 0.29 in7.4 mm
03:13 AM 48.6°F9.2°C 47.5°F8.6°C 96% 16.0 mph SW25.7 kmh SW 37.0 mph59.5 kmh 29.16 in987.5 mb 0.07 in1.8 mm 0.00 in0.0 mm 0.29 in7.4 mm
03:12 AM 48.6°F9.2°C 47.5°F8.6°C 96% 16.0 mph SW25.7 kmh SW 37.0 mph59.5 kmh 29.16 in987.5 mb 0.07 in1.8 mm 0.00 in0.0 mm 0.29 in7.4 mm
03:11 AM 48.6°F9.2°C 47.5°F8.6°C 96% 16.0 mph SW25.7 kmh SW 30.0 mph48.3 kmh 29.16 in987.5 mb 0.08 in2.0 mm 0.60 in15.2 mm 0.29 in7.4 mm
03:10 AM 48.6°F9.2°C 47.5°F8.6°C 96% 16.0 mph SW25.7 kmh SW 30.0 mph48.3 kmh 29.16 in987.5 mb 0.07 in1.8 mm 0.00 in0.0 mm 0.28 in7.1 mm
03:09 AM 48.6°F9.2°C 47.5°F8.6°C 96% 16.0 mph SW25.7 kmh SW 30.0 mph48.3 kmh 29.16 in987.5 mb 0.07 in1.8 mm 0.00 in0.0 mm 0.28 in7.1 mm
03:08 AM 48.6°F9.2°C 47.5°F8.6°C 96% 16.0 mph SW25.7 kmh SW 30.0 mph48.3 kmh 29.16 in987.5 mb 0.07 in1.8 mm 0.00 in0.0 mm 0.28 in7.1 mm
03:07 AM 48.6°F9.2°C 47.5°F8.6°C 96% 16.0 mph SW25.7 kmh SW 30.0 mph48.3 kmh 29.16 in987.5 mb 0.07 in1.8 mm 0.00 in0.0 mm 0.28 in7.1 mm
03:06 AM 48.7°F9.3°C 47.7°F8.7°C 96% 16.0 mph SW25.7 kmh SW 29.0 mph46.7 kmh 29.16 in987.5 mb 0.07 in1.8 mm 0.00 in0.0 mm 0.28 in7.1 mm
03:05 AM 48.7°F9.3°C 47.7°F8.7°C 96% 16.0 mph SW25.7 kmh SW 33.0 mph53.1 kmh 29.16 in987.5 mb 0.07 in1.8 mm 0.00 in0.0 mm 0.28 in7.1 mm
03:04 AM 48.7°F9.3°C 47.7°F8.7°C 96% 16.0 mph SW25.7 kmh SW 33.0 mph53.1 kmh 29.16 in987.5 mb 0.07 in1.8 mm 0.00 in0.0 mm 0.28 in7.1 mm
03:03 AM 48.7°F9.3°C 47.7°F8.7°C 96% 16.0 mph SW25.7 kmh SW 33.0 mph53.1 kmh 29.17 in987.8 mb 0.07 in1.8 mm 0.00 in0.0 mm 0.28 in7.1 mm
03:02 AM 48.7°F9.3°C 47.7°F8.7°C 96% 17.0 mph SW27.4 kmh SW 33.0 mph53.1 kmh 29.16 in987.5 mb 0.07 in1.8 mm 0.00 in0.0 mm 0.28 in7.1 mm
03:01 AM 48.7°F9.3°C 47.7°F8.7°C 96% 17.0 mph SW27.4 kmh SW 33.0 mph53.1 kmh 29.16 in987.5 mb 0.07 in1.8 mm 0.00 in0.0 mm 0.28 in7.1 mm
03:00 AM 48.7°F9.3°C 47.7°F8.7°C 96% 17.0 mph SW27.4 kmh SW 33.0 mph53.1 kmh 29.16 in987.5 mb 0.07 in1.8 mm 0.00 in0.0 mm 0.28 in7.1 mm
02:59 AM 48.7°F9.3°C 47.7°F8.7°C 96% 17.0 mph SW27.4 kmh SW 33.0 mph53.1 kmh 29.16 in987.5 mb 0.07 in1.8 mm 0.00 in0.0 mm 0.28 in7.1 mm
02:58 AM 48.7°F9.3°C 47.7°F8.7°C 96% 17.0 mph SW27.4 kmh SW 33.0 mph53.1 kmh 29.16 in987.5 mb 0.07 in1.8 mm 0.60 in15.2 mm 0.28 in7.1 mm
02:57 AM 48.7°F9.3°C 47.7°F8.7°C 96% 17.0 mph SW27.4 kmh SW 33.0 mph53.1 kmh 29.17 in987.8 mb 0.06 in1.5 mm 0.00 in0.0 mm 0.28 in7.1 mm
02:56 AM 48.7°F9.3°C 47.7°F8.7°C 96% 16.0 mph SW25.7 kmh SW 33.0 mph53.1 kmh 29.16 in987.5 mb 0.06 in1.5 mm 0.00 in0.0 mm 0.28 in7.1 mm
02:55 AM 48.6°F9.2°C 47.5°F8.6°C 96% 17.0 mph SW27.4 kmh SW 32.0 mph51.5 kmh 29.17 in987.8 mb 0.06 in1.5 mm 0.00 in0.0 mm 0.28 in7.1 mm
02:54 AM 48.7°F9.3°C 47.7°F8.7°C 96% 16.0 mph SW25.7 kmh SW 32.0 mph51.5 kmh 29.17 in987.8 mb 0.06 in1.5 mm 0.00 in0.0 mm 0.28 in7.1 mm
02:53 AM 48.6°F9.2°C 47.5°F8.6°C 96% 16.0 mph SW25.7 kmh SW 28.0 mph45.1 kmh 29.17 in987.8 mb 0.07 in1.8 mm 0.00 in0.0 mm 0.28 in7.1 mm
02:52 AM 48.6°F9.2°C 47.5°F8.6°C 96% 16.0 mph SW25.7 kmh SW 28.0 mph45.1 kmh 29.17 in987.8 mb 0.07 in1.8 mm 0.00 in0.0 mm 0.28 in7.1 mm
02:51 AM 48.6°F9.2°C 47.5°F8.6°C 96% 16.0 mph SW25.7 kmh SW 27.0 mph43.5 kmh 29.17 in987.8 mb 0.07 in1.8 mm 0.00 in0.0 mm 0.28 in7.1 mm
02:50 AM 48.6°F9.2°C 47.5°F8.6°C 96% 15.0 mph SW24.1 kmh SW 28.0 mph45.1 kmh 29.17 in987.8 mb 0.07 in1.8 mm 0.60 in15.2 mm 0.28 in7.1 mm
02:49 AM 48.6°F9.2°C 47.5°F8.6°C 96% 15.0 mph SW24.1 kmh SW 28.0 mph45.1 kmh 29.17 in987.8 mb 0.06 in1.5 mm 0.00 in0.0 mm 0.27 in6.9 mm
02:48 AM 48.6°F9.2°C 47.5°F8.6°C 96% 15.0 mph SW24.1 kmh SW 28.0 mph45.1 kmh 29.18 in988.1 mb 0.07 in1.8 mm 0.00 in0.0 mm 0.27 in6.9 mm
02:47 AM 48.6°F9.2°C 47.5°F8.6°C 96% 15.0 mph SW24.1 kmh SW 28.0 mph45.1 kmh 29.18 in988.1 mb 0.07 in1.8 mm 0.00 in0.0 mm 0.27 in6.9 mm
02:46 AM 48.6°F9.2°C 47.5°F8.6°C 96% 14.0 mph SW22.5 kmh SW 29.0 mph46.7 kmh 29.18 in988.1 mb 0.07 in1.8 mm 0.60 in15.2 mm 0.27 in6.9 mm
02:45 AM 48.6°F9.2°C 47.5°F8.6°C 96% 14.0 mph SW22.5 kmh SW 29.0 mph46.7 kmh 29.18 in988.1 mb 0.06 in1.5 mm 0.00 in0.0 mm 0.26 in6.6 mm
02:44 AM 48.6°F9.2°C 47.5°F8.6°C 96% 14.0 mph SW22.5 kmh SW 29.0 mph46.7 kmh 29.18 in988.1 mb 0.07 in1.8 mm 0.00 in0.0 mm 0.26 in6.6 mm
02:43 AM 48.6°F9.2°C 47.5°F8.6°C 96% 14.0 mph SW22.5 kmh SW 29.0 mph46.7 kmh 29.18 in988.1 mb 0.07 in1.8 mm 0.00 in0.0 mm 0.26 in6.6 mm
02:42 AM 48.6°F9.2°C 47.5°F8.6°C 96% 14.0 mph SW22.5 kmh SW 29.0 mph46.7 kmh 29.18 in988.1 mb 0.07 in1.8 mm 0.00 in0.0 mm 0.26 in6.6 mm
02:41 AM 48.6°F9.2°C 47.5°F8.6°C 96% 14.0 mph SW22.5 kmh SW 29.0 mph46.7 kmh 29.18 in988.1 mb 0.08 in2.0 mm 0.00 in0.0 mm 0.26 in6.6 mm
02:40 AM 48.6°F9.2°C 47.5°F8.6°C 96% 14.0 mph SW22.5 kmh SW 29.0 mph46.7 kmh 29.18 in988.1 mb 0.08 in2.0 mm 0.00 in0.0 mm 0.26 in6.6 mm
02:39 AM 48.6°F9.2°C 47.5°F8.6°C 96% 14.0 mph SW22.5 kmh SW 29.0 mph46.7 kmh 29.18 in988.1 mb 0.08 in2.0 mm 0.00 in0.0 mm 0.26 in6.6 mm
02:38 AM 48.6°F9.2°C 47.5°F8.6°C 96% 14.0 mph SW22.5 kmh SW 29.0 mph46.7 kmh 29.18 in988.1 mb 0.08 in2.0 mm 0.00 in0.0 mm 0.26 in6.6 mm
02:37 AM 48.6°F9.2°C 47.5°F8.6°C 96% 14.0 mph SW22.5 kmh SW 29.0 mph46.7 kmh 29.18 in988.1 mb 0.09 in2.3 mm 0.00 in0.0 mm 0.26 in6.6 mm
02:36 AM 48.6°F9.2°C 47.5°F8.6°C 96% 14.0 mph SW22.5 kmh SW 26.0 mph41.8 kmh 29.18 in988.1 mb 0.09 in2.3 mm 0.60 in15.2 mm 0.26 in6.6 mm
02:35 AM 48.6°F9.2°C 47.5°F8.6°C 96% 14.0 mph SW22.5 kmh SW 26.0 mph41.8 kmh 29.18 in988.1 mb 0.08 in2.0 mm 0.00 in0.0 mm 0.25 in6.4 mm
02:34 AM 48.6°F9.2°C 47.5°F8.6°C 96% 15.0 mph SW24.1 kmh SW 26.0 mph41.8 kmh 29.18 in988.1 mb 0.08 in2.0 mm 0.00 in0.0 mm 0.25 in6.4 mm
02:33 AM 48.6°F9.2°C 47.5°F8.6°C 96% 15.0 mph SW24.1 kmh SW 26.0 mph41.8 kmh 29.18 in988.1 mb 0.09 in2.3 mm 0.00 in0.0 mm 0.25 in6.4 mm
02:32 AM 48.6°F9.2°C 47.5°F8.6°C 96% 15.0 mph SW24.1 kmh SW 26.0 mph41.8 kmh 29.19 in988.5 mb 0.09 in2.3 mm 0.00 in0.0 mm 0.25 in6.4 mm
02:31 AM 48.6°F9.2°C 47.5°F8.6°C 96% 15.0 mph SW24.1 kmh SW 26.0 mph41.8 kmh 29.19 in988.5 mb 0.09 in2.3 mm 0.00 in0.0 mm 0.24 in6.1 mm
02:30 AM 48.6°F9.2°C 47.5°F8.6°C 96% 15.0 mph SW24.1 kmh SW 27.0 mph43.5 kmh 29.19 in988.5 mb 0.09 in2.3 mm 0.00 in0.0 mm 0.24 in6.1 mm
02:29 AM 48.6°F9.2°C 47.5°F8.6°C 96% 15.0 mph SW24.1 kmh SW 28.0 mph45.1 kmh 29.19 in988.5 mb 0.09 in2.3 mm 0.00 in0.0 mm 0.24 in6.1 mm
02:28 AM 48.4°F9.1°C 47.3°F8.5°C 96% 15.0 mph SW24.1 kmh SW 28.0 mph45.1 kmh 29.20 in988.8 mb 0.09 in2.3 mm 0.00 in0.0 mm 0.24 in6.1 mm
02:27 AM 48.4°F9.1°C 47.3°F8.5°C 96% 15.0 mph SW24.1 kmh SW 28.0 mph45.1 kmh 29.19 in988.5 mb 0.09 in2.3 mm 0.00 in0.0 mm 0.24 in6.1 mm
02:26 AM 48.4°F9.1°C 47.3°F8.5°C 96% 15.0 mph SW24.1 kmh SW 28.0 mph45.1 kmh 29.19 in988.5 mb 0.09 in2.3 mm 0.00 in0.0 mm 0.24 in6.1 mm
02:25 AM 48.4°F9.1°C 47.3°F8.5°C 96% 15.0 mph SW24.1 kmh SW 28.0 mph45.1 kmh 29.19 in988.5 mb 0.09 in2.3 mm 0.00 in0.0 mm 0.24 in6.1 mm
02:24 AM 48.4°F9.1°C 47.3°F8.5°C 96% 15.0 mph SW24.1 kmh SW 28.0 mph45.1 kmh 29.19 in988.5 mb 0.09 in2.3 mm 0.00 in0.0 mm 0.23 in5.8 mm
02:23 AM 48.4°F9.1°C 47.3°F8.5°C 96% 15.0 mph SW24.1 kmh SW 28.0 mph45.1 kmh 29.19 in988.5 mb 0.09 in2.3 mm 0.00 in0.0 mm 0.23 in5.8 mm
02:22 AM 48.4°F9.1°C 47.3°F8.5°C 96% 14.0 mph SW22.5 kmh SW 28.0 mph45.1 kmh 29.19 in988.5 mb 0.10 in2.5 mm 0.00 in0.0 mm 0.23 in5.8 mm
02:21 AM 48.4°F9.1°C 47.3°F8.5°C 96% 14.0 mph SW22.5 kmh SW 28.0 mph45.1 kmh 29.19 in988.5 mb 0.10 in2.5 mm 0.60 in15.2 mm 0.23 in5.8 mm
02:20 AM 48.4°F9.1°C 47.3°F8.5°C 96% 14.0 mph SW22.5 kmh SW 28.0 mph45.1 kmh 29.20 in988.8 mb 0.09 in2.3 mm 0.00 in0.0 mm 0.22 in5.6 mm
02:19 AM 48.2°F9.0°C 47.1°F8.4°C 96% 14.0 mph SW22.5 kmh SW 27.0 mph43.5 kmh 29.19 in988.5 mb 0.10 in2.5 mm 0.00 in0.0 mm 0.22 in5.6 mm
02:18 AM 48.2°F9.0°C 47.1°F8.4°C 96% 14.0 mph SW22.5 kmh SW 27.0 mph43.5 kmh 29.19 in988.5 mb 0.10 in2.5 mm 0.00 in0.0 mm 0.22 in5.6 mm
02:17 AM 48.2°F9.0°C 47.1°F8.4°C 96% 13.0 mph SW20.9 kmh SW 26.0 mph41.8 kmh 29.19 in988.5 mb 0.10 in2.5 mm 0.00 in0.0 mm 0.22 in5.6 mm
02:16 AM 48.0°F8.9°C 46.9°F8.3°C 96% 13.0 mph SW20.9 kmh SW 26.0 mph41.8 kmh 29.20 in988.8 mb 0.11 in2.8 mm 0.00 in0.0 mm 0.22 in5.6 mm
02:15 AM 48.0°F8.9°C 46.9°F8.3°C 96% 13.0 mph SW20.9 kmh SW 26.0 mph41.8 kmh 29.20 in988.8 mb 0.11 in2.8 mm 0.00 in0.0 mm 0.22 in5.6 mm
02:14 AM 48.0°F8.9°C 46.9°F8.3°C 96% 13.0 mph SW20.9 kmh SW 26.0 mph41.8 kmh 29.20 in988.8 mb 0.11 in2.8 mm 0.00 in0.0 mm 0.22 in5.6 mm
02:13 AM 48.0°F8.9°C 46.9°F8.3°C 96% 12.0 mph SW19.3 kmh SW 26.0 mph41.8 kmh 29.20 in988.8 mb 0.11 in2.8 mm 0.60 in15.2 mm 0.22 in5.6 mm
02:12 AM 48.0°F8.9°C 46.9°F8.3°C 96% 13.0 mph SW20.9 kmh SW 26.0 mph41.8 kmh 29.20 in988.8 mb 0.10 in2.5 mm 0.00 in0.0 mm 0.21 in5.3 mm
02:11 AM 47.8°F8.8°C 46.8°F8.2°C 96% 13.0 mph SW20.9 kmh SW 26.0 mph41.8 kmh 29.20 in988.8 mb 0.10 in2.5 mm 0.00 in0.0 mm 0.21 in5.3 mm
02:10 AM 47.8°F8.8°C 46.8°F8.2°C 96% 13.0 mph SW20.9 kmh SW 26.0 mph41.8 kmh 29.21 in989.2 mb 0.10 in2.5 mm 0.00 in0.0 mm 0.21 in5.3 mm
02:09 AM 47.8°F8.8°C 46.8°F8.2°C 96% 13.0 mph SW20.9 kmh SW 26.0 mph41.8 kmh 29.21 in989.2 mb 0.11 in2.8 mm 0.00 in0.0 mm 0.21 in5.3 mm
02:08 AM 47.8°F8.8°C 46.8°F8.2°C 96% 12.0 mph SW19.3 kmh SW 26.0 mph41.8 kmh 29.21 in989.2 mb 0.11 in2.8 mm 0.00 in0.0 mm 0.21 in5.3 mm
02:07 AM 47.8°F8.8°C 46.8°F8.2°C 96% 12.0 mph SW19.3 kmh SW 26.0 mph41.8 kmh 29.20 in988.8 mb 0.11 in2.8 mm 0.00 in0.0 mm 0.21 in5.3 mm
02:06 AM 47.8°F8.8°C 46.8°F8.2°C 96% 12.0 mph SW19.3 kmh SW 26.0 mph41.8 kmh 29.21 in989.2 mb 0.11 in2.8 mm 0.00 in0.0 mm 0.21 in5.3 mm
02:05 AM 47.7°F8.7°C 46.6°F8.1°C 96% 12.0 mph SW19.3 kmh SW 26.0 mph41.8 kmh 29.21 in989.2 mb 0.11 in2.8 mm 0.00 in0.0 mm 0.21 in5.3 mm
02:04 AM 47.7°F8.7°C 46.6°F8.1°C 96% 12.0 mph SW19.3 kmh SW 26.0 mph41.8 kmh 29.20 in988.8 mb 0.11 in2.8 mm 0.00 in0.0 mm 0.21 in5.3 mm
02:03 AM 47.7°F8.7°C 46.6°F8.1°C 96% 12.0 mph SW19.3 kmh SW 24.0 mph38.6 kmh 29.21 in989.2 mb 0.11 in2.8 mm 0.00 in0.0 mm 0.21 in5.3 mm
02:02 AM 47.7°F8.7°C 46.6°F8.1°C 96% 12.0 mph SW19.3 kmh SW 23.0 mph37.0 kmh 29.21 in989.2 mb 0.11 in2.8 mm 0.00 in0.0 mm 0.21 in5.3 mm
02:01 AM 47.7°F8.7°C 46.6°F8.1°C 96% 11.0 mph SW17.7 kmh SW 23.0 mph37.0 kmh 29.21 in989.2 mb 0.11 in2.8 mm 0.00 in0.0 mm 0.21 in5.3 mm
02:00 AM 47.5°F8.6°C 46.4°F8.0°C 96% 11.0 mph SW17.7 kmh SW 23.0 mph37.0 kmh 29.21 in989.2 mb 0.11 in2.8 mm 0.00 in0.0 mm 0.21 in5.3 mm
01:59 AM 47.5°F8.6°C 46.4°F8.0°C 96% 11.0 mph SW17.7 kmh SW 23.0 mph37.0 kmh 29.21 in989.2 mb 0.11 in2.8 mm 0.00 in0.0 mm 0.21 in5.3 mm
01:58 AM 47.5°F8.6°C 46.4°F8.0°C 96% 12.0 mph SW19.3 kmh SW 23.0 mph37.0 kmh 29.22 in989.5 mb 0.11 in2.8 mm 0.00 in0.0 mm 0.21 in5.3 mm
01:57 AM 47.5°F8.6°C 46.4°F8.0°C 96% 12.0 mph SW19.3 kmh SW 23.0 mph37.0 kmh 29.22 in989.5 mb 0.11 in2.8 mm 0.00 in0.0 mm 0.21 in5.3 mm
01:56 AM 47.5°F8.6°C 46.4°F8.0°C 96% 13.0 mph SW20.9 kmh SW 23.0 mph37.0 kmh 29.22 in989.5 mb 0.11 in2.8 mm 0.00 in0.0 mm 0.21 in5.3 mm
01:55 AM 47.5°F8.6°C 46.4°F8.0°C 96% 12.0 mph SW19.3 kmh SW 23.0 mph37.0 kmh 29.22 in989.5 mb 0.12 in3.0 mm 0.00 in0.0 mm 0.21 in5.3 mm
01:54 AM 47.3°F8.5°C 46.2°F7.9°C 96% 12.0 mph SW19.3 kmh SW 23.0 mph37.0 kmh 29.22 in989.5 mb 0.12 in3.0 mm 0.60 in15.2 mm 0.21 in5.3 mm
01:53 AM 47.1°F8.4°C 46.0°F7.8°C 96% 12.0 mph SW19.3 kmh SW 23.0 mph37.0 kmh 29.22 in989.5 mb 0.11 in2.8 mm 0.00 in0.0 mm 0.20 in5.1 mm
01:52 AM 47.1°F8.4°C 46.0°F7.8°C 96% 11.0 mph SW17.7 kmh SW 22.0 mph35.4 kmh 29.22 in989.5 mb 0.11 in2.8 mm 0.00 in0.0 mm 0.20 in5.1 mm
01:51 AM 47.1°F8.4°C 46.0°F7.8°C 96% 12.0 mph SW19.3 kmh SW 22.0 mph35.4 kmh 29.23 in989.8 mb 0.11 in2.8 mm 0.00 in0.0 mm 0.20 in5.1 mm
01:50 AM 47.1°F8.4°C 46.0°F7.8°C 96% 11.0 mph SW17.7 kmh SW 22.0 mph35.4 kmh 29.22 in989.5 mb 0.11 in2.8 mm 0.60 in15.2 mm 0.20 in5.1 mm
01:49 AM 46.9°F8.3°C 45.9°F7.7°C 96% 11.0 mph SW17.7 kmh SW 22.0 mph35.4 kmh 29.23 in989.8 mb 0.10 in2.5 mm 0.00 in0.0 mm 0.20 in5.1 mm
01:48 AM 46.9°F8.3°C 45.9°F7.7°C 96% 11.0 mph SW17.7 kmh SW 22.0 mph35.4 kmh 29.23 in989.8 mb 0.10 in2.5 mm 0.00 in0.0 mm 0.20 in5.1 mm
01:47 AM 46.9°F8.3°C 45.9°F7.7°C 96% 11.0 mph SW17.7 kmh SW 22.0 mph35.4 kmh 29.23 in989.8 mb 0.10 in2.5 mm 0.00 in0.0 mm 0.20 in5.1 mm
01:46 AM 46.8°F8.2°C 45.7°F7.6°C 96% 11.0 mph SW17.7 kmh SW 22.0 mph35.4 kmh 29.23 in989.8 mb 0.10 in2.5 mm 0.60 in15.2 mm 0.20 in5.1 mm
01:45 AM 46.8°F8.2°C 45.7°F7.6°C 96% 11.0 mph SW17.7 kmh SW 22.0 mph35.4 kmh 29.23 in989.8 mb 0.09 in2.3 mm 0.00 in0.0 mm 0.19 in4.8 mm
01:44 AM 46.8°F8.2°C 45.7°F7.6°C 96% 12.0 mph SW19.3 kmh SW 25.0 mph40.2 kmh 29.24 in990.2 mb 0.09 in2.3 mm 0.00 in0.0 mm 0.19 in4.8 mm
01:43 AM 46.8°F8.2°C 45.7°F7.6°C 96% 12.0 mph SW19.3 kmh SW 25.0 mph40.2 kmh 29.24 in990.2 mb 0.09 in2.3 mm 0.00 in0.0 mm 0.19 in4.8 mm
01:42 AM 46.8°F8.2°C 45.7°F7.6°C 96% 12.0 mph SW19.3 kmh SW 25.0 mph40.2 kmh 29.24 in990.2 mb 0.09 in2.3 mm 0.00 in0.0 mm 0.19 in4.8 mm
01:41 AM 46.6°F8.1°C 45.5°F7.5°C 96% 12.0 mph SW19.3 kmh SW 25.0 mph40.2 kmh 29.24 in990.2 mb 0.09 in2.3 mm 0.00 in0.0 mm 0.18 in4.6 mm
01:40 AM 46.6°F8.1°C 45.1°F7.3°C 95% 13.0 mph SW20.9 kmh SW 25.0 mph40.2 kmh 29.25 in990.5 mb 0.09 in2.3 mm 0.00 in0.0 mm 0.18 in4.6 mm
01:39 AM 46.6°F8.1°C 45.1°F7.3°C 95% 13.0 mph SW20.9 kmh SW 25.0 mph40.2 kmh 29.25 in990.5 mb 0.09 in2.3 mm 0.00 in0.0 mm 0.18 in4.6 mm
01:38 AM 46.4°F8.0°C 45.0°F7.2°C 95% 12.0 mph SW19.3 kmh SW 25.0 mph40.2 kmh 29.25 in990.5 mb 0.09 in2.3 mm 0.00 in0.0 mm 0.18 in4.6 mm
01:37 AM 46.2°F7.9°C 45.0°F7.2°C 95% 13.0 mph SW20.9 kmh SW 25.0 mph40.2 kmh 29.25 in990.5 mb 0.09 in2.3 mm 0.00 in0.0 mm 0.17 in4.3 mm
01:36 AM 46.2°F7.9°C 45.1°F7.3°C 96% 13.0 mph SW20.9 kmh SW 25.0 mph40.2 kmh 29.25 in990.5 mb 0.09 in2.3 mm 0.00 in0.0 mm 0.17 in4.3 mm
01:35 AM 46.0°F7.8°C 45.0°F7.2°C 96% 12.0 mph SW19.3 kmh SW 25.0 mph40.2 kmh 29.25 in990.5 mb 0.09 in2.3 mm 0.60 in15.2 mm 0.17 in4.3 mm
01:34 AM 45.9°F7.7°C 44.6°F7.0°C 95% 12.0 mph SW19.3 kmh SW 22.0 mph35.4 kmh 29.25 in990.5 mb 0.08 in2.0 mm 0.00 in0.0 mm 0.17 in4.3 mm
01:33 AM 45.9°F7.7°C 44.6°F7.0°C 95% 12.0 mph SW19.3 kmh SW 22.0 mph35.4 kmh 29.26 in990.9 mb 0.08 in2.0 mm 0.00 in0.0 mm 0.17 in4.3 mm
01:32 AM 45.9°F7.7°C 44.4°F6.9°C 95% 12.0 mph SW19.3 kmh SW 22.0 mph35.4 kmh 29.26 in990.9 mb 0.08 in2.0 mm 0.60 in15.2 mm 0.17 in4.3 mm
01:31 AM 45.7°F7.6°C 44.4°F6.9°C 95% 12.0 mph SW19.3 kmh SW 22.0 mph35.4 kmh 29.26 in990.9 mb 0.07 in1.8 mm 0.00 in0.0 mm 0.16 in4.1 mm
01:30 AM 45.7°F7.6°C 44.2°F6.8°C 95% 12.0 mph SW19.3 kmh SW 22.0 mph35.4 kmh 29.26 in990.9 mb 0.07 in1.8 mm 0.00 in0.0 mm 0.16 in4.1 mm
01:29 AM 45.5°F7.5°C 44.2°F6.8°C 95% 12.0 mph SW19.3 kmh SW 22.0 mph35.4 kmh 29.26 in990.9 mb 0.07 in1.8 mm 0.60 in15.2 mm 0.16 in4.1 mm
01:28 AM 45.3°F7.4°C 44.1°F6.7°C 95% 12.0 mph SW19.3 kmh SW 22.0 mph35.4 kmh 29.27 in991.2 mb 0.06 in1.5 mm 0.00 in0.0 mm 0.15 in3.8 mm
01:27 AM 45.3°F7.4°C 43.9°F6.6°C 95% 11.0 mph SW17.7 kmh SW 22.0 mph35.4 kmh 29.27 in991.2 mb 0.06 in1.5 mm 0.00 in0.0 mm 0.15 in3.8 mm
01:26 AM 45.1°F7.3°C 43.9°F6.6°C 95% 11.0 mph SW17.7 kmh SW 22.0 mph35.4 kmh 29.27 in991.2 mb 0.06 in1.5 mm 0.00 in0.0 mm 0.15 in3.8 mm
01:25 AM 45.1°F7.3°C 43.7°F6.5°C 95% 11.0 mph SW17.7 kmh SW 22.0 mph35.4 kmh 29.27 in991.2 mb 0.06 in1.5 mm 0.00 in0.0 mm 0.14 in3.6 mm
01:24 AM 45.0°F7.2°C 43.7°F6.5°C 95% 11.0 mph SW17.7 kmh SW 22.0 mph35.4 kmh 29.27 in991.2 mb 0.06 in1.5 mm 0.60 in15.2 mm 0.13 in3.3 mm
01:23 AM 45.0°F7.2°C 43.7°F6.5°C 95% 11.0 mph SW17.7 kmh SW 21.0 mph33.8 kmh 29.27 in991.2 mb 0.05 in1.3 mm 0.00 in0.0 mm 0.13 in3.3 mm
01:22 AM 45.0°F7.2°C 43.5°F6.4°C 95% 11.0 mph SW17.7 kmh SW 21.0 mph33.8 kmh 29.27 in991.2 mb 0.05 in1.3 mm 0.00 in0.0 mm 0.13 in3.3 mm
01:21 AM 44.8°F7.1°C 43.5°F6.4°C 95% 11.0 mph SSW17.7 kmh SSW 21.0 mph33.8 kmh 29.27 in991.2 mb 0.05 in1.3 mm 0.60 in15.2 mm 0.13 in3.3 mm
01:20 AM 44.8°F7.1°C 43.3°F6.3°C 95% 11.0 mph SSW17.7 kmh SSW 21.0 mph33.8 kmh 29.27 in991.2 mb 0.04 in1.0 mm 0.00 in0.0 mm 0.12 in3.0 mm
01:19 AM 44.6°F7.0°C 43.3°F6.3°C 95% 10.0 mph SSW16.1 kmh SSW 21.0 mph33.8 kmh 29.27 in991.2 mb 0.04 in1.0 mm 0.00 in0.0 mm 0.12 in3.0 mm
01:18 AM 44.4°F6.9°C 43.2°F6.2°C 95% 10.0 mph SSW16.1 kmh SSW 21.0 mph33.8 kmh 29.27 in991.2 mb 0.05 in1.3 mm 0.00 in0.0 mm 0.12 in3.0 mm
01:17 AM 44.4°F6.9°C 43.0°F6.1°C 95% 10.0 mph SSW16.1 kmh SSW 20.0 mph32.2 kmh 29.27 in991.2 mb 0.05 in1.3 mm 0.60 in15.2 mm 0.12 in3.0 mm
01:16 AM 44.2°F6.8°C 43.0°F6.1°C 95% 10.0 mph SSW16.1 kmh SSW 20.0 mph32.2 kmh 29.28 in991.5 mb 0.04 in1.0 mm 0.00 in0.0 mm 0.11 in2.8 mm
01:15 AM 44.2°F6.8°C 42.8°F6.0°C 95% 10.0 mph SSW16.1 kmh SSW 20.0 mph32.2 kmh 29.28 in991.5 mb 0.04 in1.0 mm 0.00 in0.0 mm 0.11 in2.8 mm
01:14 AM 44.1°F6.7°C 42.8°F6.0°C 95% 10.0 mph SSW16.1 kmh SSW 20.0 mph32.2 kmh 29.28 in991.5 mb 0.04 in1.0 mm 0.00 in0.0 mm 0.11 in2.8 mm
01:13 AM 44.1°F6.7°C 42.6°F5.9°C 95% 9.0 mph SSW14.5 kmh SSW 20.0 mph32.2 kmh 29.28 in991.5 mb 0.04 in1.0 mm 0.00 in0.0 mm 0.11 in2.8 mm
01:12 AM 43.9°F6.6°C 42.6°F5.9°C 95% 9.0 mph SSW14.5 kmh SSW 20.0 mph32.2 kmh 29.28 in991.5 mb 0.04 in1.0 mm 0.00 in0.0 mm 0.11 in2.8 mm
01:11 AM 43.9°F6.6°C 42.4°F5.8°C 95% 9.0 mph SSW14.5 kmh SSW 18.0 mph29.0 kmh 29.28 in991.5 mb 0.04 in1.0 mm 0.00 in0.0 mm 0.11 in2.8 mm
01:10 AM 43.9°F6.6°C 42.3°F5.7°C 94% 9.0 mph SSW14.5 kmh SSW 18.0 mph29.0 kmh 29.29 in991.9 mb 0.04 in1.0 mm 0.60 in15.2 mm 0.11 in2.8 mm
01:09 AM 43.9°F6.6°C 42.3°F5.7°C 94% 9.0 mph SSW14.5 kmh SSW 18.0 mph29.0 kmh 29.29 in991.9 mb 0.03 in0.8 mm 0.00 in0.0 mm 0.10 in2.5 mm
01:08 AM 43.7°F6.5°C 42.1°F5.6°C 94% 9.0 mph SSW14.5 kmh SSW 18.0 mph29.0 kmh 29.28 in991.5 mb 0.04 in1.0 mm 0.00 in0.0 mm 0.10 in2.5 mm
01:07 AM 43.7°F6.5°C 42.1°F5.6°C 94% 9.0 mph SSW14.5 kmh SSW 18.0 mph29.0 kmh 29.29 in991.9 mb 0.04 in1.0 mm 0.00 in0.0 mm 0.10 in2.5 mm
01:06 AM 43.7°F6.5°C 42.1°F5.6°C 94% 9.0 mph SSW14.5 kmh SSW 18.0 mph29.0 kmh 29.29 in991.9 mb 0.04 in1.0 mm 0.00 in0.0 mm 0.10 in2.5 mm
01:05 AM 43.7°F6.5°C 42.1°F5.6°C 94% 8.0 mph SSW12.9 kmh SSW 18.0 mph29.0 kmh 29.29 in991.9 mb 0.04 in1.0 mm 0.00 in0.0 mm 0.10 in2.5 mm
01:04 AM 43.7°F6.5°C 42.1°F5.6°C 94% 8.0 mph SW12.9 kmh SW 18.0 mph29.0 kmh 29.30 in992.2 mb 0.04 in1.0 mm 0.00 in0.0 mm 0.10 in2.5 mm
01:03 AM 43.5°F6.4°C 41.9°F5.5°C 94% 8.0 mph SW12.9 kmh SW 18.0 mph29.0 kmh 29.30 in992.2 mb 0.04 in1.0 mm 0.00 in0.0 mm 0.10 in2.5 mm
01:02 AM 43.7°F6.5°C 42.1°F5.6°C 94% 8.0 mph SSW12.9 kmh SSW 17.0 mph27.4 kmh 29.30 in992.2 mb 0.05 in1.3 mm 0.00 in0.0 mm 0.10 in2.5 mm
01:01 AM 43.5°F6.4°C 41.9°F5.5°C 94% 8.0 mph SSW12.9 kmh SSW 14.0 mph22.5 kmh 29.30 in992.2 mb 0.05 in1.3 mm 0.00 in0.0 mm 0.10 in2.5 mm
01:00 AM 43.5°F6.4°C 41.9°F5.5°C 94% 8.0 mph SSW12.9 kmh SSW 14.0 mph22.5 kmh 29.31 in992.6 mb 0.05 in1.3 mm 0.00 in0.0 mm 0.10 in2.5 mm
12:59 AM 43.5°F6.4°C 41.9°F5.5°C 94% 8.0 mph SSW12.9 kmh SSW 18.0 mph29.0 kmh 29.31 in992.6 mb 0.05 in1.3 mm 0.00 in0.0 mm 0.10 in2.5 mm
12:58 AM 43.5°F6.4°C 41.9°F5.5°C 94% 8.0 mph SSW12.9 kmh SSW 18.0 mph29.0 kmh 29.31 in992.6 mb 0.05 in1.3 mm 0.00 in0.0 mm 0.10 in2.5 mm
12:57 AM 43.5°F6.4°C 41.9°F5.5°C 94% 8.0 mph SSW12.9 kmh SSW 18.0 mph29.0 kmh 29.31 in992.6 mb 0.05 in1.3 mm 0.60 in15.2 mm 0.10 in2.5 mm
12:56 AM 43.5°F6.4°C 41.9°F5.5°C 94% 8.0 mph SSW12.9 kmh SSW 18.0 mph29.0 kmh 29.31 in992.6 mb 0.04 in1.0 mm 0.00 in0.0 mm 0.09 in2.3 mm
12:55 AM 43.5°F6.4°C 41.9°F5.5°C 94% 8.0 mph SSW12.9 kmh SSW 18.0 mph29.0 kmh 29.31 in992.6 mb 0.04 in1.0 mm 0.00 in0.0 mm 0.09 in2.3 mm
12:54 AM 43.5°F6.4°C 41.9°F5.5°C 94% 8.0 mph SSW12.9 kmh SSW 18.0 mph29.0 kmh 29.31 in992.6 mb 0.05 in1.3 mm 0.00 in0.0 mm 0.09 in2.3 mm
12:53 AM 43.5°F6.4°C 41.9°F5.5°C 94% 8.0 mph SSW12.9 kmh SSW 18.0 mph29.0 kmh 29.31 in992.6 mb 0.05 in1.3 mm 0.00 in0.0 mm 0.09 in2.3 mm
12:52 AM 43.5°F6.4°C 41.9°F5.5°C 94% 8.0 mph SSW12.9 kmh SSW 18.0 mph29.0 kmh 29.32 in992.9 mb 0.05 in1.3 mm 0.00 in0.0 mm 0.09 in2.3 mm
12:51 AM 43.5°F6.4°C 41.9°F5.5°C 94% 8.0 mph SSW12.9 kmh SSW 18.0 mph29.0 kmh 29.31 in992.6 mb 0.05 in1.3 mm 0.00 in0.0 mm 0.09 in2.3 mm
12:50 AM 43.5°F6.4°C 41.9°F5.5°C 94% 8.0 mph SSW12.9 kmh SSW 18.0 mph29.0 kmh 29.31 in992.6 mb 0.05 in1.3 mm 0.00 in0.0 mm 0.09 in2.3 mm
12:49 AM 43.5°F6.4°C 41.9°F5.5°C 94% 8.0 mph SSW12.9 kmh SSW 15.0 mph24.1 kmh 29.32 in992.9 mb 0.05 in1.3 mm 0.00 in0.0 mm 0.09 in2.3 mm
12:48 AM 43.5°F6.4°C 41.9°F5.5°C 94% 8.0 mph SSW12.9 kmh SSW 15.0 mph24.1 kmh 29.32 in992.9 mb 0.06 in1.5 mm 0.00 in0.0 mm 0.09 in2.3 mm
12:47 AM 43.5°F6.4°C 41.9°F5.5°C 94% 8.0 mph SSW12.9 kmh SSW 15.0 mph24.1 kmh 29.33 in993.2 mb 0.06 in1.5 mm 0.00 in0.0 mm 0.09 in2.3 mm
12:46 AM 43.5°F6.4°C 41.9°F5.5°C 94% 8.0 mph SSW12.9 kmh SSW 15.0 mph24.1 kmh 29.33 in993.2 mb 0.06 in1.5 mm 0.00 in0.0 mm 0.09 in2.3 mm
12:45 AM 43.3°F6.3°C 41.7°F5.4°C 94% 8.0 mph S12.9 kmh S 15.0 mph24.1 kmh 29.33 in993.2 mb 0.06 in1.5 mm 0.00 in0.0 mm 0.09 in2.3 mm
12:44 AM 43.3°F6.3°C 41.7°F5.4°C 94% 8.0 mph S12.9 kmh S 15.0 mph24.1 kmh 29.33 in993.2 mb 0.06 in1.5 mm 0.00 in0.0 mm 0.09 in2.3 mm
12:43 AM 43.3°F6.3°C 41.7°F5.4°C 94% 9.0 mph SSW14.5 kmh SSW 15.0 mph24.1 kmh 29.34 in993.6 mb 0.06 in1.5 mm 0.00 in0.0 mm 0.09 in2.3 mm
12:42 AM 43.3°F6.3°C 41.7°F5.4°C 94% 8.0 mph SSW12.9 kmh SSW 15.0 mph24.1 kmh 29.33 in993.2 mb 0.06 in1.5 mm 0.00 in0.0 mm 0.09 in2.3 mm
12:41 AM 43.3°F6.3°C 41.7°F5.4°C 94% 8.0 mph SSW12.9 kmh SSW 15.0 mph24.1 kmh 29.33 in993.2 mb 0.06 in1.5 mm 0.00 in0.0 mm 0.09 in2.3 mm
12:40 AM 43.3°F6.3°C 41.7°F5.4°C 94% 9.0 mph SSW14.5 kmh SSW 15.0 mph24.1 kmh 29.34 in993.6 mb 0.06 in1.5 mm 0.00 in0.0 mm 0.09 in2.3 mm
12:39 AM 43.3°F6.3°C 41.7°F5.4°C 94% 9.0 mph SSW14.5 kmh SSW 15.0 mph24.1 kmh 29.34 in993.6 mb 0.06 in1.5 mm 0.00 in0.0 mm 0.09 in2.3 mm
12:38 AM 43.3°F6.3°C 41.7°F5.4°C 94% 8.0 mph SSW12.9 kmh SSW 15.0 mph24.1 kmh 29.34 in993.6 mb 0.06 in1.5 mm 0.00 in0.0 mm 0.09 in2.3 mm
12:37 AM 43.3°F6.3°C 41.7°F5.4°C 94% 8.0 mph SSW12.9 kmh SSW 15.0 mph24.1 kmh 29.34 in993.6 mb 0.06 in1.5 mm 0.00 in0.0 mm 0.09 in2.3 mm
12:36 AM 43.3°F6.3°C 41.4°F5.2°C 93% 8.0 mph SSW12.9 kmh SSW 15.0 mph24.1 kmh 29.34 in993.6 mb 0.06 in1.5 mm 0.00 in0.0 mm 0.09 in2.3 mm
12:35 AM 43.3°F6.3°C 41.4°F5.2°C 93% 8.0 mph SSW12.9 kmh SSW 17.0 mph27.4 kmh 29.34 in993.6 mb 0.06 in1.5 mm 0.00 in0.0 mm 0.09 in2.3 mm
12:34 AM 43.3°F6.3°C 41.4°F5.2°C 93% 8.0 mph SSW12.9 kmh SSW 17.0 mph27.4 kmh 29.35 in993.9 mb 0.06 in1.5 mm 0.00 in0.0 mm 0.09 in2.3 mm
12:33 AM 43.3°F6.3°C 41.4°F5.2°C 93% 8.0 mph SSW12.9 kmh SSW 17.0 mph27.4 kmh 29.35 in993.9 mb 0.06 in1.5 mm 0.00 in0.0 mm 0.09 in2.3 mm
12:32 AM 43.3°F6.3°C 41.4°F5.2°C 93% 8.0 mph SSW12.9 kmh SSW 17.0 mph27.4 kmh 29.35 in993.9 mb 0.06 in1.5 mm 0.00 in0.0 mm 0.09 in2.3 mm
12:31 AM 43.2°F6.2°C 41.4°F5.2°C 93% 8.0 mph SSW12.9 kmh SSW 17.0 mph27.4 kmh 29.35 in993.9 mb 0.06 in1.5 mm 0.00 in0.0 mm 0.09 in2.3 mm
12:30 AM 43.2°F6.2°C 41.4°F5.2°C 93% 8.0 mph SSW12.9 kmh SSW 17.0 mph27.4 kmh 29.35 in993.9 mb 0.06 in1.5 mm 0.00 in0.0 mm 0.09 in2.3 mm
12:29 AM 43.2°F6.2°C 41.4°F5.2°C 93% 8.0 mph SSW12.9 kmh SSW 17.0 mph27.4 kmh 29.35 in993.9 mb 0.06 in1.5 mm 0.00 in0.0 mm 0.09 in2.3 mm
12:28 AM 43.2°F6.2°C 41.4°F5.2°C 93% 8.0 mph SSW12.9 kmh SSW 17.0 mph27.4 kmh 29.36 in994.2 mb 0.06 in1.5 mm 0.00 in0.0 mm 0.09 in2.3 mm
12:27 AM 43.2°F6.2°C 41.4°F5.2°C 93% 8.0 mph SSW12.9 kmh SSW 17.0 mph27.4 kmh 29.36 in994.2 mb 0.06 in1.5 mm 0.00 in0.0 mm 0.09 in2.3 mm
12:26 AM 43.2°F6.2°C 41.4°F5.2°C 93% 8.0 mph SSW12.9 kmh SSW 17.0 mph27.4 kmh 29.36 in994.2 mb 0.06 in1.5 mm 0.00 in0.0 mm 0.09 in2.3 mm
12:25 AM 43.2°F6.2°C 41.4°F5.2°C 93% 8.0 mph SSW12.9 kmh SSW 16.0 mph25.7 kmh 29.36 in994.2 mb 0.06 in1.5 mm 0.00 in0.0 mm 0.08 in2.0 mm
12:24 AM 43.2°F6.2°C 41.4°F5.2°C 93% 8.0 mph SSW12.9 kmh SSW 16.0 mph25.7 kmh 29.36 in994.2 mb 0.06 in1.5 mm 0.00 in0.0 mm 0.08 in2.0 mm
12:23 AM 43.2°F6.2°C 41.4°F5.2°C 93% 8.0 mph SSW12.9 kmh SSW 16.0 mph25.7 kmh 29.36 in994.2 mb 0.06 in1.5 mm 0.00 in0.0 mm 0.08 in2.0 mm
12:22 AM 43.2°F6.2°C 41.4°F5.2°C 93% 8.0 mph SSW12.9 kmh SSW 16.0 mph25.7 kmh 29.36 in994.2 mb 0.06 in1.5 mm 0.00 in0.0 mm 0.08 in2.0 mm
12:21 AM 43.2°F6.2°C 41.2°F5.1°C 93% 8.0 mph SSW12.9 kmh SSW 16.0 mph25.7 kmh 29.37 in994.6 mb 0.06 in1.5 mm 0.00 in0.0 mm 0.08 in2.0 mm
12:20 AM 43.2°F6.2°C 41.2°F5.1°C 93% 7.0 mph SSW11.3 kmh SSW 16.0 mph25.7 kmh 29.37 in994.6 mb 0.06 in1.5 mm 0.00 in0.0 mm 0.08 in2.0 mm
12:19 AM 43.2°F6.2°C 41.2°F5.1°C 93% 8.0 mph SSW12.9 kmh SSW 15.0 mph24.1 kmh 29.37 in994.6 mb 0.07 in1.8 mm 0.60 in15.2 mm 0.08 in2.0 mm
12:18 AM 43.2°F6.2°C 41.2°F5.1°C 93% 8.0 mph SSW12.9 kmh SSW 15.0 mph24.1 kmh 29.38 in994.9 mb 0.06 in1.5 mm 0.00 in0.0 mm 0.07 in1.8 mm
12:17 AM 43.2°F6.2°C 41.2°F5.1°C 93% 8.0 mph SSW12.9 kmh SSW 15.0 mph24.1 kmh 29.38 in994.9 mb 0.06 in1.5 mm 0.00 in0.0 mm 0.07 in1.8 mm
12:16 AM 43.2°F6.2°C 41.2°F5.1°C 93% 8.0 mph SSW12.9 kmh SSW 15.0 mph24.1 kmh 29.38 in994.9 mb 0.06 in1.5 mm 0.00 in0.0 mm 0.07 in1.8 mm
12:15 AM 43.2°F6.2°C 41.2°F5.1°C 93% 8.0 mph SSW12.9 kmh SSW 15.0 mph24.1 kmh 29.38 in994.9 mb 0.06 in1.5 mm 0.00 in0.0 mm 0.07 in1.8 mm
12:14 AM 43.2°F6.2°C 41.2°F5.1°C 93% 8.0 mph SSW12.9 kmh SSW 17.0 mph27.4 kmh 29.38 in994.9 mb 0.06 in1.5 mm 0.00 in0.0 mm 0.07 in1.8 mm
12:13 AM 43.2°F6.2°C 41.2°F5.1°C 93% 9.0 mph SSW14.5 kmh SSW 17.0 mph27.4 kmh 29.38 in994.9 mb 0.06 in1.5 mm 0.00 in0.0 mm 0.07 in1.8 mm
12:12 AM 43.2°F6.2°C 41.2°F5.1°C 93% 9.0 mph SSW14.5 kmh SSW 17.0 mph27.4 kmh 29.38 in994.9 mb 0.06 in1.5 mm 0.00 in0.0 mm 0.07 in1.8 mm
12:11 AM 43.2°F6.2°C 41.2°F5.1°C 93% 9.0 mph SSW14.5 kmh SSW 17.0 mph27.4 kmh 29.39 in995.3 mb 0.06 in1.5 mm 0.00 in0.0 mm 0.07 in1.8 mm
12:10 AM 43.2°F6.2°C 41.2°F5.1°C 93% 9.0 mph SSW14.5 kmh SSW 17.0 mph27.4 kmh 29.39 in995.3 mb 0.06 in1.5 mm 0.00 in0.0 mm 0.07 in1.8 mm
12:09 AM 43.2°F6.2°C 41.2°F5.1°C 93% 9.0 mph SSW14.5 kmh SSW 17.0 mph27.4 kmh 29.39 in995.3 mb 0.06 in1.5 mm 0.00 in0.0 mm 0.06 in1.5 mm
12:08 AM 43.0°F6.1°C 41.2°F5.1°C 93% 9.0 mph SSW14.5 kmh SSW 17.0 mph27.4 kmh 29.39 in995.3 mb 0.06 in1.5 mm 0.00 in0.0 mm 0.06 in1.5 mm
12:07 AM 43.0°F6.1°C 40.8°F4.9°C 92% 8.0 mph SSW12.9 kmh SSW 17.0 mph27.4 kmh 29.39 in995.3 mb 0.06 in1.5 mm 0.00 in0.0 mm 0.06 in1.5 mm
12:06 AM 43.0°F6.1°C 40.8°F4.9°C 92% 9.0 mph SSW14.5 kmh SSW 17.0 mph27.4 kmh 29.39 in995.3 mb 0.06 in1.5 mm 0.00 in0.0 mm 0.06 in1.5 mm
12:05 AM 43.0°F6.1°C 40.8°F4.9°C 92% 8.0 mph SSW12.9 kmh SSW 17.0 mph27.4 kmh 29.40 in995.6 mb 0.06 in1.5 mm 0.00 in0.0 mm 0.06 in1.5 mm
12:04 AM 43.0°F6.1°C 40.8°F4.9°C 92% 8.0 mph SSW12.9 kmh SSW 17.0 mph27.4 kmh 29.40 in995.6 mb 0.06 in1.5 mm 0.00 in0.0 mm 0.06 in1.5 mm
12:03 AM 42.8°F6.0°C 40.6°F4.8°C 92% 8.0 mph SSW12.9 kmh SSW 16.0 mph25.7 kmh 29.40 in995.6 mb 0.06 in1.5 mm 0.00 in0.0 mm 0.06 in1.5 mm
12:02 AM 42.8°F6.0°C 40.6°F4.8°C 92% 8.0 mph SSW12.9 kmh SSW 16.0 mph25.7 kmh 29.40 in995.6 mb 0.06 in1.5 mm 0.00 in0.0 mm 0.06 in1.5 mm
12:01 AM 42.8°F6.0°C 40.6°F4.8°C 92% 7.0 mph SSW11.3 kmh SSW 16.0 mph25.7 kmh 29.40 in995.6 mb 0.06 in1.5 mm 0.00 in0.0 mm 0.06 in1.5 mm
12:00 AM 42.8°F6.0°C 40.6°F4.8°C 92% 8.0 mph SSW12.9 kmh SSW 16.0 mph25.7 kmh 29.41 in995.9 mb 0.06 in1.5 mm 0.00 in0.0 mm 0.06 in1.5 mm